Data Archive--June, 2006

Date Time Heat Index Current Temp Wind Chill High Temp Low Temp Humidity Dew Point Wind Speed Gust Wind Direction Rain Barometer
06/01/2006 12:00 a 63.6 63.6 63.6 63.7 63.6 94 61.8 0.0 0.0 Plea 0.00 29.973
06/01/2006 12:10 a 63.6 63.6 63.6 63.6 63.6 94 61.8 0.0 0.0 Plea 0.00 29.975
06/01/2006 12:20 a 63.5 63.5 63.5 63.6 63.5 95 62.0 0.0 0.0 Plea 0.00 29.976
06/01/2006 12:30 a 63.5 63.5 63.5 63.5 63.4 95 62.0 0.0 0.0 Plea 0.00 29.978
06/01/2006 12:40 a 63.3 63.3 63.3 63.4 63.3 95 61.8 0.0 0.0 Plea 0.00 29.973
06/01/2006 12:50 a 63.2 63.2 63.2 63.3 63.1 95 61.7 0.0 0.0 Plea 0.00 29.968
06/01/2006 1:00 a 63.1 63.1 63.1 63.1 63.1 95 61.6 0.0 0.0 Plea 0.00 29.972
06/01/2006 1:10 a 63.0 63.0 63.0 63.1 63.0 95 61.5 0.0 0.0 Plea 0.00 29.966
06/01/2006 1:20 a 62.9 62.9 62.9 63.0 62.8 95 61.4 0.0 0.0 Plea 0.00 29.966
06/01/2006 1:30 a 62.8 62.8 62.8 62.8 62.8 96 61.6 0.0 0.0 Plea 0.00 29.967
06/01/2006 1:40 a 62.7 62.7 62.7 62.8 62.6 95 61.2 0.0 0.0 Plea 0.00 29.973
06/01/2006 1:50 a 62.5 62.5 62.5 62.6 62.4 95 61.0 0.0 0.0 Plea 0.00 29.965
06/01/2006 2:00 a 62.3 62.3 62.3 62.4 62.2 95 60.8 0.0 0.0 Plea 0.00 29.959
06/01/2006 2:10 a 62.1 62.1 62.1 62.2 62.1 95 60.7 0.0 0.0 Plea 0.00 29.961
06/01/2006 2:20 a 62.1 62.1 62.1 62.1 62.0 96 60.9 0.0 0.0 Plea 0.00 29.961
06/01/2006 2:30 a 62.0 62.0 62.0 62.0 62.0 96 60.8 0.0 0.0 Plea 0.00 29.956
06/01/2006 2:40 a 62.0 62.0 62.0 62.0 61.9 96 60.8 0.0 0.0 Plea 0.00 29.951
06/01/2006 2:50 a 61.9 61.9 61.9 61.9 61.8 97 61.0 0.0 0.0 Plea 0.00 29.947
06/01/2006 3:00 a 61.9 61.9 61.9 61.9 61.8 97 61.0 0.0 0.0 Plea 0.00 29.948
06/01/2006 3:10 a 61.9 61.9 61.9 61.9 61.9 97 61.0 0.0 0.0 Plea 0.00 29.942
06/01/2006 3:20 a 62.0 62.0 62.0 62.0 61.9 97 61.1 0.0 0.0 Plea 0.00 29.939
06/01/2006 3:30 a 62.1 62.1 62.1 62.2 62.0 98 61.5 0.0 0.0 Plea 0.00 29.940
06/01/2006 3:40 a 62.2 62.2 62.2 62.3 62.1 98 61.6 0.0 0.0 Plea 0.00 29.937
06/01/2006 3:50 a 62.4 62.4 62.4 62.5 62.3 99 62.1 0.0 0.0 Plea 0.00 29.935
06/01/2006 4:00 a 62.7 62.7 62.7 62.8 62.5 98 62.1 0.0 0.0 Plea 0.00 29.928
06/01/2006 4:10 a 62.9 62.9 62.9 63.0 62.8 98 62.3 0.0 0.0 Plea 0.00 29.928
06/01/2006 4:20 a 63.2 63.2 63.2 63.3 63.0 98 62.6 0.0 0.0 Plea 0.00 29.926
06/01/2006 4:30 a 63.4 63.4 63.4 63.5 63.3 98 62.8 0.0 0.0 Plea 0.00 29.923
06/01/2006 4:40 a 63.6 63.6 63.6 63.7 63.5 98 63.0 0.0 0.0 Plea 0.00 29.926
06/01/2006 4:50 a 63.9 63.9 63.9 64.0 63.7 99 63.6 0.0 0.0 Plea 0.00 29.923
06/01/2006 5:00 a 64.2 64.2 64.2 64.4 64.0 100 64.2 0.0 0.0 Plea 0.00 29.921
06/01/2006 5:10 a 64.7 64.7 64.7 64.9 64.4 100 64.7 0.0 0.0 Plea 0.00 29.918
06/01/2006 5:20 a 65.0 65.0 65.0 65.2 64.9 100 65.0 0.0 0.0 Plea 0.00 29.915
06/01/2006 5:30 a 65.3 65.3 65.3 65.5 65.2 100 65.3 0.0 0.0 Plea 0.00 29.920
06/01/2006 5:40 a 65.7 65.7 65.7 66.0 65.5 100 65.7 0.0 0.0 Plea 0.00 29.924
06/01/2006 5:50 a 66.0 66.0 66.0 66.1 65.9 100 66.0 0.0 0.0 Plea 0.00 29.926
06/01/2006 6:00 a 66.0 66.0 66.0 66.1 66.0 100 66.0 0.0 0.0 Plea 0.00 29.925
06/01/2006 6:10 a 66.0 66.0 66.0 66.0 66.0 100 66.0 0.0 0.0 Plea 0.00 29.925
06/01/2006 6:20 a 66.1 66.1 66.1 66.2 66.0 100 66.1 0.0 0.0 Plea 0.00 29.931
06/01/2006 6:30 a 66.2 66.2 66.2 66.2 66.2 100 66.2 0.0 0.0 Plea 0.00 29.926
06/01/2006 6:40 a 66.2 66.2 66.2 66.3 66.2 100 66.2 0.0 0.0 Plea 0.00 29.932
06/01/2006 6:50 a 66.3 66.3 66.3 66.3 66.3 100 66.3 0.0 0.0 Plea 0.00 29.931
06/01/2006 7:00 a 66.3 66.3 66.3 66.4 66.3 100 66.3 0.0 0.0 Plea 0.00 29.929
06/01/2006 7:10 a 66.5 66.5 66.5 66.5 66.4 100 66.5 0.0 0.0 Plea 0.00 29.925
06/01/2006 7:20 a 66.6 66.6 66.6 66.7 66.5 100 66.6 0.0 0.0 Plea 0.00 29.922
06/01/2006 7:30 a 66.8 66.8 66.8 66.9 66.7 100 66.8 0.0 0.0 Plea 0.00 29.921
06/01/2006 7:40 a 67.0 67.0 67.0 67.1 66.9 99 66.7 0.0 0.0 Plea 0.00 29.920
06/01/2006 7:50 a 67.2 67.2 67.2 67.4 67.1 99 66.9 0.0 0.0 Plea 0.00 29.919
06/01/2006 8:00 a 67.5 67.5 67.5 67.7 67.4 98 66.9 0.0 0.0 Plea 0.00 29.920
06/01/2006 8:10 a 67.8 67.8 67.8 68.0 67.6 97 66.9 0.0 0.0 Plea 0.00 29.920
06/01/2006 8:20 a 70.0 68.1 68.1 68.3 68.0 96 66.9 0.0 0.0 Plea 0.00 29.920
06/01/2006 8:30 a 71.6 68.5 68.5 68.6 68.3 96 67.3 0.0 0.0 Plea 0.00 29.919
06/01/2006 8:40 a 71.5 68.8 68.8 69.0 68.6 95 67.3 0.0 0.0 Plea 0.00 29.914
06/01/2006 8:50 a 71.3 69.2 69.2 69.4 69.0 93 67.1 0.0 0.0 Plea 0.00 29.911
06/01/2006 9:00 a 72.2 69.6 69.6 69.9 69.4 91 66.9 0.0 0.0 Plea 0.00 29.911
06/01/2006 9:10 a 72.0 70.2 70.2 70.5 69.9 90 67.1 0.0 0.0 Plea 0.00 29.908
06/01/2006 9:20 a 73.0 70.7 70.7 71.0 70.5 88 67.0 0.0 2.0 NW 0.00 29.907
06/01/2006 9:30 a 73.0 71.4 71.4 71.7 71.0 88 67.7 0.0 1.0 NW 0.00 29.901
06/01/2006 9:40 a 74.0 72.0 72.0 72.3 71.7 86 67.6 0.0 2.0 NW 0.00 29.897
06/01/2006 9:50 a 75.0 72.6 72.6 73.0 72.3 85 67.8 0.0 0.0 Plea 0.00 29.893
06/01/2006 10:00 a 75.0 73.3 73.3 73.5 73.0 85 68.5 0.0 0.0 Plea 0.00 29.890
06/01/2006 10:10 a 76.0 73.9 73.9 74.3 73.5 84 68.8 0.0 0.0 Plea 0.00 29.884
06/01/2006 10:20 a 77.2 74.7 74.7 75.1 74.3 82 68.8 0.0 0.0 Plea 0.00 29.883
06/01/2006 10:30 a 79.0 75.6 75.6 76.1 75.1 80 69.0 0.0 0.0 Plea 0.00 29.878
06/01/2006 10:40 a 78.9 76.4 76.4 76.7 76.1 79 69.4 0.0 0.0 Plea 0.00 29.876
06/01/2006 10:50 a 80.6 77.0 77.0 77.3 76.7 78 69.6 0.0 0.0 Plea 0.00 29.878
06/01/2006 11:00 a 81.4 77.7 77.7 78.0 77.3 77 69.9 0.0 0.0 Plea 0.00 29.874
06/01/2006 11:10 a 81.0 78.4 78.4 78.8 78.1 75 69.8 0.0 0.0 Plea 0.00 29.869
06/01/2006 11:20 a 81.8 79.2 79.2 79.6 78.8 74 70.2 0.0 0.0 Plea 0.00 29.865
06/01/2006 11:30 a 83.8 80.0 80.0 80.5 79.6 74 71.0 0.0 0.0 Plea 0.00 29.859
06/01/2006 11:40 a 85.6 80.8 80.8 81.1 80.5 73 71.3 0.0 0.0 Plea 0.00 29.856
06/01/2006 11:50 a 87.4 81.5 81.5 82.0 81.1 72 71.6 0.0 0.0 Plea 0.00 29.852
06/01/2006 12:00 p 89.0 82.5 82.5 82.8 82.0 70 71.7 0.0 0.0 Plea 0.00 29.852
06/01/2006 12:10 p 88.6 83.3 83.3 83.9 82.8 69 72.1 0.0 0.0 Plea 0.00 29.843
06/01/2006 12:20 p 91.4 84.5 84.5 85.0 83.9 66 71.9 0.0 0.0 Plea 0.00 29.838
06/01/2006 12:30 p 91.4 85.4 85.4 85.7 85.0 66 72.7 0.0 0.0 Plea 0.00 29.840
06/01/2006 12:40 p 92.2 86.0 86.0 86.4 85.7 63 71.9 0.0 0.0 Plea 0.00 29.835
06/01/2006 12:50 p 93.0 86.8 86.8 87.1 86.4 60 71.2 0.0 0.0 Plea 0.00 29.830
06/01/2006 1:00 p 93.8 87.3 87.3 87.5 87.1 62 72.7 0.0 0.0 Plea 0.00 29.824
06/01/2006 1:10 p 94.7 87.8 87.8 88.1 87.5 59 71.7 0.0 0.0 Plea 0.00 29.823
06/01/2006 1:20 p 95.0 88.2 88.2 88.3 88.1 60 72.6 0.0 0.0 Plea 0.00 29.817
06/01/2006 1:30 p 95.0 88.3 88.3 88.4 88.2 60 72.7 0.0 0.0 Plea 0.00 29.811
06/01/2006 1:40 p 94.4 88.4 88.4 88.6 88.3 58 71.7 0.0 0.0 Plea 0.00 29.810
06/01/2006 1:50 p 96.4 88.5 88.5 88.6 88.4 58 71.8 0.0 0.0 Plea 0.00 29.806
06/01/2006 2:00 p 96.4 88.7 88.7 89.0 88.4 58 72.0 0.0 0.0 Plea 0.00 29.802
06/01/2006 2:10 p 96.1 89.1 89.1 89.2 88.9 57 71.9 0.0 0.0 Plea 0.00 29.800
06/01/2006 2:20 p 96.7 88.7 88.7 88.9 88.5 59 72.5 0.0 0.0 Plea 0.00 29.796
06/01/2006 2:30 p 96.4 88.8 88.8 89.1 88.5 58 72.1 0.0 0.0 Plea 0.00 29.788
06/01/2006 2:40 p 95.8 89.4 89.4 89.6 89.1 56 71.6 0.0 0.0 Plea 0.00 29.784
06/01/2006 2:50 p 96.4 89.1 89.1 89.5 88.7 58 72.4 0.0 0.0 Plea 0.00 29.781
06/01/2006 3:00 p 95.5 88.6 88.6 88.7 88.5 55 70.4 0.0 0.0 Plea 0.00 29.783
06/01/2006 3:10 p 95.5 88.8 88.8 89.0 88.6 55 70.5 0.0 0.0 Plea 0.00 29.775
06/01/2006 3:20 p 95.2 89.2 89.2 89.4 89.0 54 70.4 0.0 0.0 Plea 0.00 29.772
06/01/2006 3:30 p 95.5 89.1 89.1 89.3 88.9 55 70.8 0.0 0.0 Plea 0.00 29.768
06/01/2006 3:40 p 95.5 89.0 89.0 89.3 88.9 55 70.7 0.0 0.0 Plea 0.00 29.763
06/01/2006 3:50 p 95.5 89.3 89.3 89.4 89.2 55 71.0 0.0 0.0 Plea 0.00 29.759
06/01/2006 4:00 p 95.5 89.1 89.1 89.2 89.1 55 70.8 0.0 0.0 Plea 0.00 29.755
06/01/2006 4:10 p 94.6 89.3 89.3 89.3 89.2 52 69.4 0.0 0.0 Plea 0.00 29.752
06/01/2006 4:20 p 94.6 89.2 89.2 89.3 89.0 52 69.3 0.0 0.0 Plea 0.00 29.741
06/01/2006 4:30 p 94.6 89.0 89.0 89.1 88.8 52 69.1 0.0 0.0 Plea 0.00 29.730
06/01/2006 4:40 p 94.6 88.7 88.7 88.8 88.7 52 68.8 0.0 0.0 Plea 0.00 29.725
06/01/2006 4:50 p 92.3 88.4 88.4 88.7 88.3 51 68.0 0.0 0.0 Plea 0.00 29.719
06/01/2006 5:00 p 92.6 88.4 88.4 88.4 88.3 52 68.5 0.0 0.0 Plea 0.00 29.721
06/01/2006 5:10 p 93.6 88.5 88.5 88.6 88.4 49 66.9 0.0 0.0 Plea 0.00 29.724
06/01/2006 5:20 p 94.3 88.6 88.6 88.7 88.6 51 68.2 0.0 0.0 Plea 0.00 29.725
06/01/2006 5:30 p 94.3 88.5 88.5 88.6 88.4 51 68.1 0.0 0.0 Plea 0.00 29.725
06/01/2006 5:40 p 92.6 88.4 88.4 88.5 88.4 52 68.5 0.0 0.0 Plea 0.00 29.723
06/01/2006 5:50 p 92.3 88.2 88.2 88.4 88.0 51 67.8 0.0 0.0 Plea 0.00 29.717
06/01/2006 6:00 p 92.9 87.7 87.7 88.0 87.4 53 68.4 0.0 0.0 Plea 0.00 29.712
06/01/2006 6:10 p 90.9 87.0 87.0 87.5 86.4 53 67.8 0.0 0.0 Plea 0.00 29.712
06/01/2006 6:20 p 89.2 86.1 86.1 86.4 85.7 54 67.5 0.0 0.0 Plea 0.00 29.707
06/01/2006 6:30 p 89.5 85.5 85.5 85.7 85.3 55 67.5 0.0 0.0 Plea 0.00 29.701
06/01/2006 6:40 p 88.0 85.2 85.2 85.3 85.0 55 67.2 0.0 0.0 Plea 0.00 29.701
06/01/2006 6:50 p 88.2 84.9 84.9 85.0 84.7 56 67.5 0.0 0.0 Plea 0.00 29.706
06/01/2006 7:00 p 88.4 84.6 84.6 84.8 84.5 57 67.7 0.0 0.0 Plea 0.00 29.702
06/01/2006 7:10 p 86.8 84.4 84.4 84.5 84.2 58 68.0 0.0 0.0 Plea 0.00 29.701
06/01/2006 7:20 p 86.7 84.0 84.0 84.2 83.9 57 67.1 0.0 8.0 ENE 0.00 29.725
06/01/2006 7:30 p 85.0 83.4 83.4 84.0 82.4 57 66.6 1.0 7.0 ESE 0.00 29.722
06/01/2006 7:40 p 84.8 81.3 81.3 82.4 79.5 69 70.2 1.0 6.0 E 0.00 29.742
06/01/2006 7:50 p 79.1 76.4 76.4 79.5 73.6 81 70.1 1.0 4.0 E 0.02 29.737
06/01/2006 8:00 p 74.0 72.2 72.2 73.6 71.4 89 68.8 0.0 2.0 SSE 0.04 29.757
06/01/2006 8:10 p 73.8 71.2 71.2 71.4 71.0 94 69.4 0.0 1.0 SSE 0.04 29.754
06/01/2006 8:20 p 74.0 70.9 70.9 71.0 70.8 95 69.4 0.0 1.0 Plea 0.03 29.762
06/01/2006 8:30 p 74.2 70.7 70.7 70.9 70.5 96 69.5 0.0 1.0 SSE 0.03 29.762
06/01/2006 8:40 p 74.4 70.5 70.5 70.5 70.4 97 69.6 0.0 0.0 Plea 0.03 29.774
06/01/2006 8:50 p 73.4 70.4 70.4 70.5 70.4 97 69.5 0.0 1.0 SSE 0.03 29.790
06/01/2006 9:00 p 73.6 70.3 70.3 70.4 70.2 98 69.7 0.0 2.0 SSE 0.02 29.787
06/01/2006 9:10 p 73.8 70.3 70.3 70.3 70.2 99 70.0 0.0 2.0 SSE 0.03 29.792
06/01/2006 9:20 p 73.8 70.3 70.3 70.3 70.3 99 70.0 0.0 2.0 SSE 0.02 29.810
06/01/2006 9:30 p 73.6 70.2 70.2 70.3 69.9 98 69.6 0.0 1.0 SSE 0.03 29.808
06/01/2006 9:40 p 73.6 69.6 69.6 69.9 69.4 98 69.0 0.0 1.0 SSE 0.03 29.802
06/01/2006 9:50 p 71.9 69.3 69.3 69.4 69.2 99 69.0 0.0 1.0 Plea 0.04 29.791
06/01/2006 10:00 p 72.0 69.1 69.1 69.2 69.1 100 69.1 0.0 1.0 SSE 0.04 29.788
06/01/2006 10:10 p 72.0 69.2 69.2 69.4 69.1 100 69.2 0.0 2.0 SSE 0.03 29.786
06/01/2006 10:20 p 72.0 69.4 69.4 69.4 69.4 100 69.4 0.0 0.0 Plea 0.04 29.785
06/01/2006 10:30 p 72.0 69.4 69.4 69.5 69.4 100 69.4 0.0 1.0 SSE 0.03 29.786
06/01/2006 10:40 p 72.0 69.4 69.4 69.5 69.4 100 69.4 0.0 0.0 Plea 0.03 29.786
06/01/2006 10:50 p 74.0 69.5 69.5 69.6 69.4 100 69.5 0.0 1.0 SSE 0.04 29.788
06/01/2006 11:00 p 74.0 69.6 69.6 69.6 69.6 100 69.6 0.0 0.0 Plea 0.03 29.787
06/01/2006 11:10 p 74.0 69.7 69.7 69.7 69.6 100 69.7 0.0 0.0 Plea 0.04 29.784
06/01/2006 11:20 p 74.0 69.7 69.7 69.8 69.7 100 69.7 0.0 0.0 Plea 0.04 29.785
06/01/2006 11:30 p 74.0 69.8 69.8 69.9 69.7 100 69.8 0.0 0.0 Plea 0.03 29.792
06/01/2006 11:40 p 74.0 69.9 69.9 69.9 69.9 100 69.9 0.0 0.0 Plea 0.03 29.788
06/01/2006 11:50 p 74.0 69.8 69.8 69.9 69.8 100 69.8 0.0 1.0 SSE 0.03 29.787
06/02/2006 12:00 a 74.0 69.7 69.7 69.8 69.7 100 69.7 0.0 0.0 Plea 0.04 29.790
06/02/2006 12:10 a 74.0 69.7 69.7 69.7 69.6 100 69.7 0.0 0.0 Plea 0.03 29.792
06/02/2006 12:20 a 74.0 69.7 69.7 69.7 69.7 100 69.7 0.0 0.0 Plea 0.02 29.792
06/02/2006 12:30 a 74.0 69.6 69.6 69.7 69.6 100 69.6 0.0 0.0 Plea 0.03 29.794
06/02/2006 12:40 a 74.0 69.6 69.6 69.6 69.5 100 69.6 0.0 0.0 Plea 0.03 29.787
06/02/2006 12:50 a 74.0 69.5 69.5 69.5 69.4 100 69.5 0.0 1.0 SSE 0.03 29.786
06/02/2006 1:00 a 72.0 69.4 69.4 69.4 69.3 100 69.4 0.0 2.0 SSE 0.03 29.774
06/02/2006 1:10 a 72.0 69.2 69.2 69.3 69.1 100 69.2 0.0 1.0 SSE 0.02 29.769
06/02/2006 1:20 a 72.0 69.1 69.1 69.1 69.0 100 69.1 0.0 2.0 SE 0.03 29.757
06/02/2006 1:30 a 72.0 69.1 69.1 69.1 69.0 100 69.1 0.0 1.0 Plea 0.03 29.757
06/02/2006 1:40 a 72.0 69.2 69.2 69.2 69.1 100 69.2 0.0 1.0 SE 0.02 29.756
06/02/2006 1:50 a 72.0 69.1 69.1 69.2 69.0 100 69.1 0.0 3.0 SW 0.03 29.747
06/02/2006 2:00 a 72.0 69.0 69.0 69.1 68.9 100 69.0 0.0 1.0 SW 0.02 29.746
06/02/2006 2:10 a 72.0 68.8 68.8 68.9 68.8 100 68.8 0.0 1.0 SW 0.03 29.741
06/02/2006 2:20 a 72.0 68.7 68.7 68.8 68.6 100 68.7 0.0 0.0 Plea 0.02 29.739
06/02/2006 2:30 a 72.0 68.6 68.6 68.7 68.6 100 68.6 0.0 0.0 Plea 0.02 29.736
06/02/2006 2:40 a 72.0 68.6 68.6 68.6 68.6 100 68.6 0.0 0.0 Plea 0.02 29.729
06/02/2006 2:50 a 72.0 68.6 68.6 68.7 68.6 100 68.6 0.0 0.0 Plea 0.02 29.728
06/02/2006 3:00 a 72.0 68.7 68.7 68.7 68.6 100 68.7 0.0 1.0 SW 0.02 29.724
06/02/2006 3:10 a 72.0 68.7 68.7 68.8 68.7 100 68.7 0.0 0.0 Plea 0.02 29.725
06/02/2006 3:20 a 72.0 68.8 68.8 68.8 68.7 100 68.8 0.0 0.0 Plea 0.02 29.729
06/02/2006 3:30 a 72.0 68.8 68.8 68.8 68.8 100 68.8 0.0 0.0 Plea 0.01 29.731
06/02/2006 3:40 a 72.0 68.9 68.9 68.9 68.8 100 68.9 0.0 0.0 Plea 0.02 29.730
06/02/2006 3:50 a 72.0 68.9 68.9 68.9 68.9 100 68.9 0.0 0.0 Plea 0.02 29.729
06/02/2006 4:00 a 72.0 68.9 68.9 68.9 68.9 100 68.9 0.0 0.0 Plea 0.01 29.730
06/02/2006 4:10 a 72.0 68.9 68.9 68.9 68.9 100 68.9 0.0 0.0 Plea 0.02 29.731
06/02/2006 4:20 a 72.0 68.9 68.9 68.9 68.9 100 68.9 0.0 0.0 Plea 0.01 29.731
06/02/2006 4:30 a 72.0 68.9 68.9 69.0 68.9 100 68.9 0.0 0.0 Plea 0.02 29.729
06/02/2006 4:40 a 72.0 69.0 69.0 69.1 69.0 100 69.0 0.0 1.0 Plea 0.01 29.728
06/02/2006 4:50 a 72.0 69.0 69.0 69.1 69.0 100 69.0 0.0 0.0 Plea 0.02 29.725
06/02/2006 5:00 a 72.0 69.0 69.0 69.1 69.0 100 69.0 0.0 0.0 Plea 0.01 29.728
06/02/2006 5:10 a 72.0 69.0 69.0 69.0 69.0 100 69.0 0.0 0.0 Plea 0.01 29.728
06/02/2006 5:20 a 72.0 68.9 68.9 69.0 68.9 100 68.9 0.0 0.0 Plea 0.02 29.730
06/02/2006 5:30 a 72.0 68.9 68.9 68.9 68.9 100 68.9 0.0 0.0 Plea 0.01 29.729
06/02/2006 5:40 a 72.0 68.9 68.9 68.9 68.8 100 68.9 0.0 0.0 Plea 0.01 29.731
06/02/2006 5:50 a 72.0 69.0 69.0 69.0 68.9 100 69.0 0.0 0.0 Plea 0.01 29.731
06/02/2006 6:00 a 72.0 69.0 69.0 69.0 68.9 100 69.0 0.0 0.0 Plea 0.01 29.736
06/02/2006 6:10 a 72.0 69.0 69.0 69.0 68.9 100 69.0 0.0 0.0 Plea 0.01 29.738
06/02/2006 6:20 a 72.0 69.0 69.0 69.0 69.0 100 69.0 0.0 0.0 Plea 0.01 29.743
06/02/2006 6:30 a 72.0 69.0 69.0 69.1 69.0 100 69.0 0.0 0.0 Plea 0.01 29.742
06/02/2006 6:40 a 72.0 69.2 69.2 69.2 69.1 100 69.2 0.0 0.0 Plea 0.01 29.745
06/02/2006 6:50 a 72.0 69.3 69.3 69.3 69.2 100 69.3 0.0 0.0 Plea 0.01 29.746
06/02/2006 7:00 a 72.0 69.3 69.3 69.4 69.3 100 69.3 0.0 0.0 Plea 0.01 29.749
06/02/2006 7:10 a 72.0 69.3 69.3 69.4 69.3 100 69.3 0.0 0.0 Plea 0.01 29.746
06/02/2006 7:20 a 72.0 69.3 69.3 69.4 69.3 100 69.3 0.0 0.0 Plea 0.01 29.741
06/02/2006 7:30 a 72.0 69.3 69.3 69.4 69.3 100 69.3 0.0 0.0 Plea 0.00 29.753
06/02/2006 7:40 a 74.0 69.5 69.5 69.6 69.4 100 69.5 0.0 0.0 Plea 0.01 29.751
06/02/2006 7:50 a 74.0 69.7 69.7 69.9 69.6 100 69.7 0.0 0.0 Plea 0.01 29.751
06/02/2006 8:00 a 74.0 69.9 69.9 69.9 69.8 100 69.9 0.0 0.0 Plea 0.14 29.752
06/02/2006 8:10 a 74.0 69.9 69.9 69.9 69.8 100 69.9 0.0 1.0 Plea 0.00 29.750
06/02/2006 8:20 a 74.0 69.8 69.8 69.9 69.8 100 69.8 0.0 1.0 Plea 0.00 29.749
06/02/2006 8:30 a 74.0 70.1 70.1 70.3 69.9 100 70.1 0.0 1.0 Plea 0.00 29.747
06/02/2006 8:40 a 75.0 70.5 70.5 70.6 70.3 100 70.5 0.0 1.0 SW 0.00 29.746
06/02/2006 8:50 a 75.0 70.6 70.6 70.6 70.5 100 70.6 0.0 0.0 Plea 0.00 29.750
06/02/2006 9:00 a 74.0 70.4 70.4 70.5 70.3 100 70.4 0.0 0.0 Plea 0.00 29.750
06/02/2006 9:10 a 74.0 70.3 70.3 70.4 70.3 100 70.3 0.0 0.0 Plea 0.00 29.751
06/02/2006 9:20 a 75.0 70.5 70.5 70.7 70.4 100 70.5 0.0 0.0 Plea 0.00 29.749
06/02/2006 9:30 a 75.0 70.8 70.8 70.8 70.7 100 70.8 0.0 1.0 SSW 0.00 29.745
06/02/2006 9:40 a 75.0 71.1 71.1 71.2 70.8 100 71.1 0.0 2.0 SSW 0.00 29.746
06/02/2006 9:50 a 74.8 71.4 71.4 71.5 71.2 99 71.1 0.0 2.0 SSW 0.00 29.745
06/02/2006 10:00 a 76.0 71.6 71.6 71.9 71.5 100 71.6 0.0 1.0 SSW 0.00 29.745
06/02/2006 10:10 a 75.2 72.0 72.0 72.0 71.9 96 70.8 0.0 1.0 SSW 0.00 29.745
06/02/2006 10:20 a 75.2 72.2 72.2 72.4 72.0 96 71.0 0.0 0.0 Plea 0.00 29.740
06/02/2006 10:30 a 75.4 72.6 72.6 72.7 72.4 92 70.1 0.0 0.0 Plea 0.00 29.742
06/02/2006 10:40 a 75.2 72.9 72.9 73.0 72.7 91 70.1 0.0 2.0 SSW 0.00 29.740
06/02/2006 10:50 a 75.8 73.1 73.1 73.2 73.0 94 71.3 0.0 0.0 Plea 0.00 29.739
06/02/2006 11:00 a 75.6 73.1 73.1 73.2 73.1 93 71.0 0.0 0.0 Plea 0.00 29.737
06/02/2006 11:10 a 75.0 73.2 73.2 73.2 73.1 90 70.1 0.0 0.0 Plea 0.00 29.735
06/02/2006 11:20 a 75.4 73.3 73.3 73.4 73.2 92 70.8 0.0 0.0 Plea 0.00 29.738
06/02/2006 11:30 a 76.0 73.6 73.6 73.8 73.4 89 70.2 0.0 0.0 Plea 0.00 29.735
06/02/2006 11:40 a 76.0 74.1 74.1 74.4 73.8 88 70.3 0.0 1.0 Plea 0.00 29.732
06/02/2006 11:50 a 77.6 74.8 74.8 75.2 74.4 86 70.3 0.0 1.0 Plea 0.00 29.731
06/02/2006 12:00 p 79.5 75.7 75.7 76.1 75.2 85 70.9 0.0 2.0 SSW 0.00 29.725
06/02/2006 12:10 p 79.4 76.3 76.3 76.6 76.0 84 71.1 0.0 2.0 SSW 0.00 29.726
06/02/2006 12:20 p 81.0 76.9 76.9 77.2 76.6 81 70.6 0.0 2.0 SSW 0.00 29.722
06/02/2006 12:30 p 81.0 77.4 77.4 77.4 77.3 81 71.1 0.0 1.0 SSW 0.00 29.721
06/02/2006 12:40 p 81.8 77.5 77.5 77.7 77.4 79 70.5 0.0 0.0 Plea 0.00 29.721
06/02/2006 12:50 p 81.6 77.9 77.9 78.1 77.7 78 70.5 0.0 1.0 SSW 0.00 29.711
06/02/2006 1:00 p 81.8 78.0 78.0 78.0 78.0 79 71.0 0.0 1.0 SSW 0.00 29.712
06/02/2006 1:10 p 81.2 78.3 78.3 78.8 78.0 76 70.1 0.0 1.0 SSW 0.00 29.706
06/02/2006 1:20 p 82.4 79.3 79.3 79.6 78.8 77 71.5 0.0 1.0 Plea 0.00 29.703
06/02/2006 1:30 p 84.0 79.7 79.7 79.8 79.6 75 71.1 0.0 1.0 SSW 0.00 29.699
06/02/2006 1:40 p 83.4 79.6 79.6 79.7 79.5 72 69.8 0.0 2.0 SSW 0.00 29.691
06/02/2006 1:50 p 83.6 79.8 79.8 80.2 79.5 73 70.4 0.0 1.0 SSW 0.00 29.689
06/02/2006 2:00 p 85.4 80.7 80.7 81.0 80.2 72 70.8 0.0 1.0 SSW 0.00 29.689
06/02/2006 2:10 p 85.8 81.0 81.0 81.0 80.9 74 71.9 0.0 1.0 Plea 0.00 29.685
06/02/2006 2:20 p 85.2 81.0 81.0 81.1 81.0 71 70.7 0.0 1.0 SSW 0.00 29.681
06/02/2006 2:30 p 85.4 81.0 81.0 81.1 81.0 72 71.1 0.0 1.0 SSW 0.00 29.675
06/02/2006 2:40 p 84.8 81.1 81.1 81.2 81.1 69 70.0 0.0 1.0 Plea 0.00 29.673
06/02/2006 2:50 p 85.4 80.8 80.8 81.1 80.7 72 70.9 0.0 1.0 SW 0.00 29.671
06/02/2006 3:00 p 85.0 80.6 80.6 80.7 80.5 70 69.9 0.0 3.0 W 0.00 29.672
06/02/2006 3:10 p 85.4 80.6 80.6 80.6 80.5 72 70.7 0.0 1.0 W 0.00 29.672
06/02/2006 3:20 p 85.6 80.6 80.6 80.7 80.5 73 71.1 0.0 1.0 Plea 0.00 29.668
06/02/2006 3:30 p 84.8 80.7 80.7 80.8 80.7 69 69.6 0.0 1.0 Plea 0.00 29.664
06/02/2006 3:40 p 84.8 80.9 80.9 81.1 80.7 69 69.8 0.0 2.0 W 0.00 29.667
06/02/2006 3:50 p 84.4 81.0 81.0 81.1 80.9 67 69.0 0.0 1.0 Plea 0.00 29.667
06/02/2006 4:00 p 84.2 80.8 80.8 80.9 80.6 66 68.4 0.0 4.0 W 0.00 29.673
06/02/2006 4:10 p 81.0 79.0 79.0 80.5 77.7 70 68.4 0.0 4.0 ESE 0.01 29.671
06/02/2006 4:20 p 80.0 76.9 76.9 77.7 76.0 75 68.4 0.0 4.0 ESE 0.00 29.671
06/02/2006 4:30 p 78.6 75.6 75.6 76.0 75.0 76 67.5 0.0 1.0 Plea 0.00 29.669
06/02/2006 4:40 p 77.0 74.7 74.7 75.0 74.3 78 67.4 0.0 1.0 ESE 0.00 29.668
06/02/2006 4:50 p 76.0 74.0 74.0 74.3 73.8 79 67.1 0.0 0.0 Plea 0.00 29.663
06/02/2006 5:00 p 76.0 73.7 73.7 73.8 73.5 80 67.1 0.0 1.0 ESE 0.00 29.667
06/02/2006 5:10 p 75.0 73.2 73.2 73.5 72.9 80 66.7 0.0 2.0 N 0.00 29.666
06/02/2006 5:20 p 75.0 72.8 72.8 72.9 72.6 82 67.0 0.0 2.0 N 0.00 29.664
06/02/2006 5:30 p 75.0 72.5 72.5 72.6 72.4 83 67.0 0.0 2.0 ENE 0.00 29.661
06/02/2006 5:40 p 74.0 72.4 72.4 72.4 72.2 87 68.3 0.0 0.0 Plea 0.17 29.669
06/02/2006 5:50 p 74.0 71.6 71.6 72.2 70.9 90 68.5 0.0 1.0 NNE 0.17 29.658
06/02/2006 6:00 p 74.2 70.5 70.5 70.8 70.2 96 69.3 0.0 2.0 NNE 0.03 29.664
06/02/2006 6:10 p 73.4 70.1 70.1 70.2 70.0 97 69.2 0.0 0.0 Plea 0.00 29.662
06/02/2006 6:20 p 73.6 69.8 69.8 70.0 69.8 98 69.2 0.0 0.0 Plea 0.00 29.658
06/02/2006 6:30 p 73.6 69.7 69.7 69.8 69.6 98 69.1 0.0 0.0 Plea 0.00 29.663
06/02/2006 6:40 p 73.8 69.6 69.6 69.7 69.6 99 69.3 0.0 2.0 NNE 0.00 29.659
06/02/2006 6:50 p 73.8 69.6 69.6 69.6 69.5 99 69.3 0.0 0.0 Plea 0.00 29.660
06/02/2006 7:00 p 73.8 69.5 69.5 69.6 69.4 99 69.2 0.0 1.0 ENE 0.01 29.666
06/02/2006 7:10 p 71.9 69.3 69.3 69.4 69.2 99 69.0 0.0 1.0 ENE 0.00 29.661
06/02/2006 7:20 p 71.9 69.1 69.1 69.2 69.1 99 68.8 0.0 1.0 Plea 0.00 29.664
06/02/2006 7:30 p 72.0 69.1 69.1 69.1 69.1 100 69.1 0.0 0.0 Plea 0.00 29.662
06/02/2006 7:40 p 72.0 69.2 69.2 69.3 69.1 100 69.2 0.0 0.0 Plea 0.00 29.672
06/02/2006 7:50 p 72.0 69.3 69.3 69.3 69.2 100 69.3 0.0 0.0 Plea 0.00 29.669
06/02/2006 8:00 p 72.0 69.2 69.2 69.3 69.2 100 69.2 0.0 1.0 ENE 0.00 29.670
06/02/2006 8:10 p 72.0 69.3 69.3 69.4 69.3 100 69.3 0.0 1.0 ENE 0.07 29.674
06/02/2006 8:20 p 72.0 69.4 69.4 69.5 69.4 100 69.4 0.0 1.0 ENE 0.19 29.664
06/02/2006 8:30 p 72.0 69.4 69.4 69.5 69.3 100 69.4 0.0 3.0 ENE 0.08 29.669
06/02/2006 8:40 p 72.0 69.1 69.1 69.3 69.0 100 69.1 0.0 0.0 Plea 0.17 29.668
06/02/2006 8:50 p 72.0 68.8 68.8 69.0 68.7 100 68.8 0.0 2.0 ENE 0.15 29.666
06/02/2006 9:00 p 72.0 68.7 68.7 68.8 68.6 100 68.7 0.0 2.0 ENE 0.14 29.664
06/02/2006 9:10 p 72.0 68.6 68.6 68.7 68.6 100 68.6 0.0 1.0 ENE 0.13 29.666
06/02/2006 9:20 p 72.0 68.7 68.7 68.8 68.6 100 68.7 0.0 0.0 Plea 0.21 29.662
06/02/2006 9:30 p 72.0 68.7 68.7 68.8 68.7 100 68.7 0.0 0.0 Plea 0.07 29.664
06/02/2006 9:40 p 72.0 68.8 68.8 68.8 68.7 100 68.8 0.0 1.0 ENE 0.03 29.659
06/02/2006 9:50 p 72.0 68.9 68.9 69.0 68.8 100 68.9 0.0 1.0 ENE 0.00 29.660
06/02/2006 10:00 p 72.0 69.0 69.0 69.0 68.9 100 69.0 0.0 1.0 ENE 0.00 29.661
06/02/2006 10:10 p 72.0 69.0 69.0 69.1 69.0 100 69.0 0.0 1.0 ENE 0.00 29.657
06/02/2006 10:20 p 72.0 69.1 69.1 69.1 69.0 100 69.1 0.0 0.0 Plea 0.01 29.645
06/02/2006 10:30 p 72.0 69.0 69.0 69.1 69.0 100 69.0 0.0 0.0 Plea 0.00 29.640
06/02/2006 10:40 p 72.0 68.9 68.9 69.0 68.8 100 68.9 0.0 0.0 Plea 0.01 29.643
06/02/2006 10:50 p 72.0 68.7 68.7 68.8 68.6 100 68.7 0.0 0.0 Plea 0.00 29.638
06/02/2006 11:00 p 70.0 68.4 68.4 68.6 68.3 100 68.4 0.0 0.0 Plea 0.01 29.632
06/02/2006 11:10 p 70.0 68.2 68.2 68.3 68.1 100 68.2 0.0 1.0 ENE 0.00 29.633
06/02/2006 11:20 p 70.0 68.1 68.1 68.2 68.0 100 68.1 0.0 0.0 Plea 0.01 29.635
06/02/2006 11:30 p 70.0 68.0 68.0 68.0 67.9 100 68.0 0.0 0.0 Plea 0.00 29.631
06/02/2006 11:40 p 67.8 67.8 67.8 67.9 67.8 100 67.8 0.0 1.0 ENE 0.01 29.628
06/02/2006 11:50 p 67.7 67.7 67.7 67.8 67.6 100 67.7 0.0 1.0 ENE 0.00 29.629
06/03/2006 12:00 a 67.6 67.6 67.6 67.6 67.5 100 67.6 0.0 0.0 Plea 0.01 29.630
06/03/2006 12:10 a 67.4 67.4 67.4 67.5 67.4 100 67.4 0.0 0.0 Plea 0.02 29.638
06/03/2006 12:20 a 67.4 67.4 67.4 67.4 67.4 100 67.4 0.0 0.0 Plea 0.04 29.653
06/03/2006 12:30 a 67.4 67.4 67.4 67.5 67.4 100 67.4 0.0 0.0 Plea 0.04 29.642
06/03/2006 12:40 a 67.4 67.4 67.4 67.4 67.3 100 67.4 0.0 0.0 Plea 0.05 29.631
06/03/2006 12:50 a 67.3 67.3 67.3 67.4 67.2 100 67.3 0.0 1.0 ENE 0.03 29.620
06/03/2006 1:00 a 67.2 67.2 67.2 67.3 67.1 100 67.2 0.0 0.0 Plea 0.04 29.615
06/03/2006 1:10 a 67.1 67.1 67.1 67.1 67.0 100 67.1 0.0 2.0 ENE 0.02 29.605
06/03/2006 1:20 a 66.9 66.9 66.9 67.0 66.8 100 66.9 0.0 1.0 ENE 0.01 29.597
06/03/2006 1:30 a 66.8 66.8 66.8 66.9 66.8 100 66.8 0.0 2.0 ENE 0.01 29.590
06/03/2006 1:40 a 66.8 66.8 66.8 66.8 66.8 100 66.8 0.0 0.0 Plea 0.02 29.588
06/03/2006 1:50 a 66.8 66.8 66.8 66.9 66.8 100 66.8 0.0 1.0 ENE 0.02 29.584
06/03/2006 2:00 a 66.9 66.9 66.9 66.9 66.8 100 66.9 0.0 0.0 Plea 0.03 29.578
06/03/2006 2:10 a 66.9 66.9 66.9 66.9 66.8 100 66.9 0.0 0.0 Plea 0.00 29.575
06/03/2006 2:20 a 66.8 66.8 66.8 66.9 66.8 100 66.8 0.0 0.0 Plea 0.00 29.570
06/03/2006 2:30 a 66.7 66.7 66.7 66.8 66.7 100 66.7 0.0 1.0 ENE 0.00 29.568
06/03/2006 2:40 a 66.7 66.7 66.7 66.7 66.6 100 66.7 0.0 1.0 ENE 0.01 29.570
06/03/2006 2:50 a 66.6 66.6 66.6 66.7 66.6 100 66.6 0.0 2.0 ENE 0.00 29.577
06/03/2006 3:00 a 66.7 66.7 66.7 66.8 66.7 100 66.7 0.0 0.0 Plea 0.01 29.572
06/03/2006 3:10 a 66.8 66.8 66.8 66.8 66.7 100 66.8 0.0 1.0 Plea 0.01 29.577
06/03/2006 3:20 a 66.8 66.8 66.8 66.9 66.8 100 66.8 0.0 1.0 ENE 0.01 29.572
06/03/2006 3:30 a 66.7 66.7 66.7 66.8 66.6 100 66.7 0.0 2.0 ENE 0.01 29.564
06/03/2006 3:40 a 66.6 66.6 66.6 66.6 66.6 100 66.6 0.0 1.0 ENE 0.00 29.566
06/03/2006 3:50 a 66.4 66.4 66.4 66.6 66.3 100 66.4 0.0 2.0 ENE 0.00 29.571
06/03/2006 4:00 a 66.2 66.2 66.2 66.3 66.1 100 66.2 0.0 0.0 Plea 0.02 29.568
06/03/2006 4:10 a 65.9 65.9 65.9 66.1 65.8 100 65.9 0.0 1.0 ENE 0.00 29.566
06/03/2006 4:20 a 65.7 65.7 65.7 65.8 65.5 100 65.7 0.0 2.0 N 0.01 29.568
06/03/2006 4:30 a 65.2 65.2 65.2 65.5 65.0 100 65.2 0.0 3.0 NW 0.00 29.561
06/03/2006 4:40 a 64.7 64.7 64.7 64.9 64.5 100 64.7 0.0 3.0 NNW 0.00 29.557
06/03/2006 4:50 a 64.5 64.5 64.5 64.5 64.4 100 64.5 0.0 2.0 ESE 0.00 29.553
06/03/2006 5:00 a 64.4 64.4 64.4 64.4 64.3 100 64.4 0.0 3.0 ESE 0.00 29.561
06/03/2006 5:10 a 64.3 64.3 64.3 64.3 64.3 100 64.3 0.0 0.0 Plea 0.01 29.562
06/03/2006 5:20 a 64.2 64.2 64.2 64.3 64.1 100 64.2 0.0 2.0 NNW 0.03 29.557
06/03/2006 5:30 a 64.0 64.0 64.0 64.1 63.8 100 64.0 0.0 3.0 NNW 0.01 29.550
06/03/2006 5:40 a 63.7 63.7 63.7 63.9 63.7 100 63.7 0.0 1.0 NE 0.00 29.546
06/03/2006 5:50 a 63.6 63.6 63.6 63.7 63.6 100 63.6 0.0 1.0 Plea 0.01 29.546
06/03/2006 6:00 a 63.6 63.6 63.6 63.7 63.6 100 63.6 0.0 1.0 NE 0.00 29.549
06/03/2006 6:10 a 63.7 63.7 63.7 63.8 63.7 100 63.7 0.0 1.0 Plea 0.00 29.547
06/03/2006 6:20 a 63.8 63.8 63.8 63.9 63.8 100 63.8 0.0 0.0 Plea 0.00 29.549
06/03/2006 6:30 a 64.0 64.0 64.0 64.1 63.9 100 64.0 0.0 1.0 NE 0.00 29.549
06/03/2006 6:40 a 64.1 64.1 64.1 64.2 64.1 100 64.1 0.0 0.0 Plea 0.00 29.545
06/03/2006 6:50 a 64.3 64.3 64.3 64.3 64.2 100 64.3 0.0 0.0 Plea 0.00 29.548
06/03/2006 7:00 a 64.4 64.4 64.4 64.4 64.3 100 64.4 0.0 0.0 Plea 0.00 29.543
06/03/2006 7:10 a 64.5 64.5 64.5 64.5 64.4 100 64.5 0.0 0.0 Plea 0.00 29.540
06/03/2006 7:20 a 64.6 64.6 64.6 64.7 64.5 100 64.6 0.0 0.0 Plea 0.00 29.536
06/03/2006 7:30 a 64.7 64.7 64.7 64.8 64.7 100 64.7 0.0 0.0 Plea 0.00 29.540
06/03/2006 7:40 a 64.9 64.9 64.9 64.9 64.8 100 64.9 0.0 0.0 Plea 0.00 29.533
06/03/2006 7:50 a 65.0 65.0 65.0 65.1 64.9 100 65.0 0.0 1.0 Plea 0.00 29.533
06/03/2006 8:00 a 65.1 65.1 65.1 65.2 65.1 100 65.1 0.0 0.0 Plea 0.01 29.531
06/03/2006 8:10 a 65.3 65.3 65.3 65.3 65.2 100 65.3 0.0 0.0 Plea 0.00 29.528
06/03/2006 8:20 a 65.3 65.3 65.3 65.4 65.2 100 65.3 0.0 1.0 ENE 0.00 29.524
06/03/2006 8:30 a 65.0 65.0 65.0 65.2 64.9 100 65.0 0.0 0.0 Plea 0.00 29.525
06/03/2006 8:40 a 64.9 64.9 64.9 64.9 64.9 100 64.9 0.0 0.0 Plea 0.00 29.527
06/03/2006 8:50 a 65.0 65.0 65.0 65.0 64.9 100 65.0 0.0 1.0 ENE 0.00 29.526
06/03/2006 9:10 a 65.0 65.0 65.0 65.1 65.0 100 65.0 0.0 2.0 ENE 0.00 29.527
06/03/2006 9:20 a 65.0 65.0 65.0 65.0 64.9 100 65.0 0.0 2.0 ENE 0.00 29.525
06/03/2006 9:30 a 65.0 65.0 65.0 65.1 64.9 100 65.0 0.0 0.0 Plea 0.00 29.520
06/03/2006 9:40 a 65.1 65.1 65.1 65.1 65.0 100 65.1 0.0 1.0 Plea 0.00 29.520
06/03/2006 9:50 a 64.9 64.9 64.9 65.0 64.8 100 64.9 0.0 1.0 Plea 0.00 29.519
06/03/2006 10:00 a 64.7 64.7 64.7 64.8 64.7 100 64.7 0.0 1.0 ENE 0.00 29.518
06/03/2006 10:10 a 64.7 64.7 64.7 64.7 64.7 100 64.7 0.0 1.0 ENE 0.00 29.519
06/03/2006 10:20 a 64.7 64.7 64.7 64.7 64.7 100 64.7 0.0 1.0 ENE 0.00 29.513
06/03/2006 10:30 a 64.7 64.7 64.7 64.8 64.7 100 64.7 0.0 1.0 ENE 0.01 29.514
06/03/2006 10:40 a 64.8 64.8 64.8 64.9 64.7 100 64.8 0.0 0.0 Plea 0.00 29.516
06/03/2006 10:50 a 65.0 65.0 65.0 65.0 64.9 100 65.0 0.0 0.0 Plea 0.00 29.513
06/03/2006 11:00 a 65.0 65.0 65.0 65.0 64.9 100 65.0 0.0 1.0 ENE 0.00 29.509
06/03/2006 11:10 a 64.8 64.8 64.8 64.9 64.8 100 64.8 0.0 1.0 ENE 0.02 29.516
06/03/2006 11:20 a 64.7 64.7 64.7 64.8 64.7 100 64.7 0.0 1.0 ENE 0.00 29.511
06/03/2006 11:30 a 64.8 64.8 64.8 64.8 64.7 100 64.8 0.0 2.0 ENE 0.00 29.512
06/03/2006 11:40 a 64.9 64.9 64.9 65.1 64.8 100 64.9 0.0 0.0 Plea 0.01 29.509
06/03/2006 11:50 a 65.3 65.3 65.3 65.5 65.1 100 65.3 0.0 1.0 Plea 0.00 29.500
06/03/2006 12:00 p 65.6 65.6 65.6 65.9 65.5 100 65.6 0.0 1.0 ENE 0.00 29.499
06/03/2006 12:10 p 66.1 66.1 66.1 66.3 65.9 100 66.1 0.0 1.0 Plea 0.01 29.496
06/03/2006 12:20 p 66.4 66.4 66.4 66.5 66.3 100 66.4 0.0 0.0 Plea 0.00 29.494
06/03/2006 12:30 p 66.5 66.5 66.5 66.7 66.4 100 66.5 0.0 1.0 ENE 0.00 29.493
06/03/2006 12:40 p 66.8 66.8 66.8 67.0 66.7 100 66.8 0.0 2.0 ENE 0.01 29.498
06/03/2006 12:50 p 67.2 67.2 67.2 67.3 67.0 100 67.2 0.0 4.0 ENE 0.01 29.504
06/03/2006 1:00 p 67.1 67.1 67.1 67.2 67.0 100 67.1 0.0 1.0 ENE 0.02 29.499
06/03/2006 1:10 p 66.9 66.9 66.9 67.0 66.9 100 66.9 0.0 1.0 ENE 0.05 29.500
06/03/2006 1:20 p 66.8 66.8 66.8 66.9 66.7 100 66.8 0.0 0.0 Plea 0.04 29.499
06/03/2006 1:30 p 66.7 66.7 66.7 66.8 66.7 100 66.7 0.0 0.0 Plea 0.01 29.493
06/03/2006 1:40 p 66.7 66.7 66.7 66.8 66.7 100 66.7 0.0 2.0 ENE 0.01 29.494
06/03/2006 1:50 p 66.9 66.9 66.9 67.0 66.8 100 66.9 0.0 2.0 ENE 0.00 29.491
06/03/2006 2:00 p 66.9 66.9 66.9 67.0 66.9 100 66.9 0.0 1.0 ENE 0.00 29.491
06/03/2006 2:10 p 66.9 66.9 66.9 67.0 66.9 100 66.9 0.0 1.0 ENE 0.01 29.498
06/03/2006 2:20 p 66.8 66.8 66.8 67.0 66.6 100 66.8 0.0 2.0 ENE 0.00 29.499
06/03/2006 2:30 p 66.7 66.7 66.7 66.8 66.7 100 66.7 0.0 3.0 ENE 0.00 29.495
06/03/2006 2:40 p 67.0 67.0 67.0 67.0 66.8 100 67.0 0.0 2.0 ENE 0.00 29.494
06/03/2006 2:50 p 66.9 66.9 66.9 67.0 66.8 100 66.9 0.0 1.0 ENE 0.00 29.494
06/03/2006 3:00 p 66.6 66.6 66.6 66.8 66.5 100 66.6 0.0 0.0 Plea 0.00 29.493
06/03/2006 3:10 p 66.3 66.3 66.3 66.5 66.3 100 66.3 0.0 0.0 Plea 0.00 29.497
06/03/2006 3:20 p 66.2 66.2 66.2 66.3 66.2 100 66.2 0.0 1.0 ENE 0.00 29.499
06/03/2006 3:30 p 66.2 66.2 66.2 66.2 66.1 100 66.2 0.0 1.0 Plea 0.00 29.499
06/03/2006 3:40 p 66.1 66.1 66.1 66.2 66.0 100 66.1 0.0 1.0 ENE 0.00 29.504
06/03/2006 3:50 p 66.0 66.0 66.0 66.0 65.9 100 66.0 0.0 1.0 ENE 0.00 29.503
06/03/2006 4:00 p 65.9 65.9 65.9 66.0 65.9 100 65.9 0.0 0.0 Plea 0.00 29.506
06/03/2006 4:10 p 65.9 65.9 65.9 65.9 65.8 100 65.9 0.0 1.0 ENE 0.00 29.507
06/03/2006 4:20 p 65.7 65.7 65.7 65.8 65.7 100 65.7 0.0 2.0 ENE 0.01 29.511
06/03/2006 4:30 p 65.7 65.7 65.7 65.7 65.6 100 65.7 0.0 1.0 ENE 0.00 29.508
06/03/2006 4:40 p 65.6 65.6 65.6 65.6 65.5 100 65.6 0.0 2.0 ENE 0.00 29.514
06/03/2006 4:50 p 65.3 65.3 65.3 65.5 65.1 100 65.3 0.0 2.0 ENE 0.00 29.515
06/03/2006 5:00 p 64.9 64.9 64.9 65.0 64.8 100 64.9 0.0 2.0 ENE 0.00 29.517
06/03/2006 5:10 p 64.8 64.8 64.8 64.8 64.6 100 64.8 0.0 2.0 ENE 0.00 29.522
06/03/2006 5:20 p 64.5 64.5 64.5 64.6 64.5 100 64.5 0.0 1.0 ENE 0.00 29.518
06/03/2006 5:30 p 64.4 64.4 64.4 64.5 64.4 100 64.4 0.0 1.0 ENE 0.00 29.524
06/03/2006 5:40 p 64.3 64.3 64.3 64.4 64.2 99 64.0 0.0 1.0 ENE 0.00 29.521
06/03/2006 5:50 p 64.0 64.0 64.0 64.2 63.9 98 63.4 0.0 0.0 Plea 0.00 29.522
06/03/2006 6:00 p 63.8 63.8 63.8 63.9 63.6 98 63.2 0.0 2.0 ENE 0.00 29.524
06/03/2006 6:10 p 63.5 63.5 63.5 63.6 63.4 98 62.9 0.0 3.0 ENE 0.00 29.525
06/03/2006 6:20 p 63.4 63.4 63.4 63.4 63.3 99 63.1 0.0 3.0 ENE 0.00 29.525
06/03/2006 6:30 p 63.2 63.2 63.2 63.3 63.2 100 63.2 0.0 3.0 ENE 0.01 29.527
06/03/2006 6:40 p 63.2 63.2 63.2 63.2 63.2 100 63.2 0.0 1.0 Plea 0.01 29.530
06/03/2006 6:50 p 63.1 63.1 63.1 63.2 63.1 100 63.1 0.0 1.0 ENE 0.00 29.532
06/03/2006 7:00 p 63.0 63.0 63.0 63.1 62.9 100 63.0 0.0 2.0 ENE 0.00 29.531
06/03/2006 7:10 p 62.8 62.8 62.8 62.9 62.8 100 62.8 0.0 1.0 ENE 0.00 29.532
06/03/2006 7:20 p 62.8 62.8 62.8 62.9 62.8 100 62.8 0.0 0.0 Plea 0.01 29.537
06/03/2006 7:30 p 62.9 62.9 62.9 62.9 62.8 100 62.9 0.0 0.0 Plea 0.00 29.538
06/03/2006 7:40 p 62.9 62.9 62.9 63.0 62.9 100 62.9 0.0 0.0 Plea 0.00 29.544
06/03/2006 7:50 p 62.9 62.9 62.9 62.9 62.9 100 62.9 0.0 0.0 Plea 0.00 29.547
06/03/2006 8:00 p 62.8 62.8 62.8 62.9 62.8 100 62.8 0.0 0.0 Plea 0.00 29.546
06/03/2006 8:10 p 63.1 63.1 63.1 63.3 62.8 100 63.1 0.0 2.0 ENE 0.00 29.548
06/03/2006 8:20 p 63.1 63.1 63.1 63.2 62.9 100 63.1 0.0 0.0 Plea 0.00 29.548
06/03/2006 8:30 p 63.3 63.3 63.3 63.3 63.2 100 63.3 0.0 0.0 Plea 0.00 29.554
06/03/2006 8:40 p 63.1 63.1 63.1 63.2 63.0 100 63.1 0.0 0.0 Plea 0.00 29.557
06/03/2006 8:50 p 63.0 63.0 63.0 63.0 62.9 100 63.0 0.0 0.0 Plea 0.00 29.559
06/03/2006 9:00 p 62.8 62.8 62.8 62.9 62.8 100 62.8 0.0 0.0 Plea 0.00 29.559
06/03/2006 9:10 p 62.6 62.6 62.6 62.8 62.5 100 62.6 0.0 0.0 Plea 0.00 29.557
06/03/2006 9:20 p 62.4 62.4 62.4 62.5 62.4 100 62.4 0.0 0.0 Plea 0.00 29.562
06/03/2006 9:30 p 62.3 62.3 62.3 62.4 62.2 100 62.3 0.0 0.0 Plea 0.00 29.563
06/03/2006 9:40 p 62.2 62.2 62.2 62.3 62.2 100 62.2 0.0 1.0 Plea 0.00 29.565
06/03/2006 9:50 p 62.3 62.3 62.3 62.4 62.3 100 62.3 0.0 2.0 ENE 0.00 29.564
06/03/2006 10:00 p 62.4 62.4 62.4 62.4 62.3 100 62.4 0.0 1.0 ENE 0.00 29.567
06/03/2006 10:10 p 62.5 62.5 62.5 62.7 62.3 100 62.5 0.0 0.0 Plea 0.00 29.565
06/03/2006 10:20 p 62.6 62.6 62.6 62.6 62.5 100 62.6 0.0 0.0 Plea 0.00 29.567
06/03/2006 10:30 p 62.4 62.4 62.4 62.5 62.3 100 62.4 0.0 0.0 Plea 0.00 29.573
06/03/2006 10:40 p 62.5 62.5 62.5 62.6 62.4 100 62.5 0.0 0.0 Plea 0.00 29.575
06/03/2006 10:50 p 62.3 62.3 62.3 62.4 62.2 100 62.3 0.0 0.0 Plea 0.00 29.575
06/03/2006 11:00 p 62.4 62.4 62.4 62.6 62.2 100 62.4 0.0 0.0 Plea 0.00 29.572
06/03/2006 11:10 p 62.4 62.4 62.4 62.5 62.3 99 62.1 0.0 2.0 ENE 0.00 29.571
06/03/2006 11:20 p 62.4 62.4 62.4 62.4 62.3 100 62.4 0.0 1.0 ENE 0.00 29.570
06/03/2006 11:30 p 62.2 62.2 62.2 62.3 62.1 100 62.2 0.0 0.0 Plea 0.00 29.575
06/03/2006 11:40 p 62.0 62.0 62.0 62.1 61.9 100 62.0 0.0 0.0 Plea 0.00 29.575
06/03/2006 11:50 p 61.8 61.8 61.8 61.9 61.8 100 61.8 0.0 0.0 Plea 0.00 29.575
06/04/2006 12:00 a 61.7 61.7 61.7 61.8 61.6 100 61.7 0.0 0.0 Plea 0.00 29.573
06/04/2006 12:10 a 61.6 61.6 61.6 61.7 61.6 100 61.6 0.0 1.0 Plea 0.00 29.580
06/04/2006 12:20 a 61.0 61.0 61.0 61.6 60.4 98 60.4 0.0 2.0 ENE 0.00 29.578
06/04/2006 12:30 a 60.0 60.0 60.0 60.4 59.7 98 59.4 0.0 3.0 SE 0.00 29.580
06/04/2006 12:40 a 59.5 59.5 59.5 59.6 59.3 99 59.2 0.0 1.0 SE 0.00 29.582
06/04/2006 12:50 a 59.2 59.2 59.2 59.3 59.1 100 59.2 0.0 2.0 SE 0.00 29.586
06/04/2006 1:00 a 58.9 58.9 58.9 59.1 58.7 99 58.6 0.0 2.0 SE 0.00 29.583
06/04/2006 1:10 a 58.5 58.5 58.5 58.7 58.3 98 57.9 0.0 1.0 SE 0.00 29.587
06/04/2006 1:20 a 58.2 58.2 58.2 58.3 58.1 99 57.9 0.0 1.0 SE 0.00 29.582
06/04/2006 1:30 a 58.1 58.1 58.1 58.2 58.0 99 57.8 0.0 1.0 SE 0.00 29.591
06/04/2006 1:40 a 58.0 58.0 58.0 58.0 57.9 100 58.0 0.0 1.0 SE 0.00 29.587
06/04/2006 1:50 a 57.9 57.9 57.9 58.0 57.8 100 57.9 0.0 1.0 SE 0.00 29.587
06/04/2006 2:00 a 57.7 57.7 57.7 57.8 57.7 99 57.4 0.0 0.0 Plea 0.00 29.588
06/04/2006 2:10 a 57.6 57.6 57.6 57.7 57.5 99 57.3 0.0 0.0 Plea 0.00 29.590
06/04/2006 2:20 a 57.4 57.4 57.4 57.5 57.3 99 57.1 0.0 0.0 Plea 0.00 29.590
06/04/2006 2:30 a 57.3 57.3 57.3 57.3 57.2 99 57.0 0.0 1.0 Plea 0.00 29.595
06/04/2006 2:40 a 57.2 57.2 57.2 57.3 57.2 99 56.9 0.0 0.0 Plea 0.00 29.594
06/04/2006 2:50 a 57.1 57.1 57.1 57.2 57.1 99 56.8 0.0 0.0 Plea 0.00 29.594
06/04/2006 3:00 a 57.1 57.1 57.1 57.1 57.1 99 56.8 0.0 0.0 Plea 0.00 29.590
06/04/2006 3:10 a 57.1 57.1 57.1 57.1 57.1 100 57.1 0.0 0.0 Plea 0.00 29.587
06/04/2006 3:20 a 57.1 57.1 57.1 57.1 57.1 99 56.8 0.0 0.0 Plea 0.00 29.593
06/04/2006 3:30 a 57.1 57.1 57.1 57.2 57.1 100 57.1 0.0 0.0 Plea 0.00 29.591
06/04/2006 3:40 a 57.2 57.2 57.2 57.2 57.1 100 57.2 0.0 0.0 Plea 0.00 29.591
06/04/2006 3:50 a 57.2 57.2 57.2 57.2 57.1 100 57.2 0.0 0.0 Plea 0.00 29.589
06/04/2006 4:00 a 57.1 57.1 57.1 57.1 57.0 100 57.1 0.0 0.0 Plea 0.00 29.588
06/04/2006 4:10 a 57.1 57.1 57.1 57.1 57.0 99 56.8 0.0 1.0 SE 0.00 29.592
06/04/2006 4:20 a 57.0 57.0 57.0 57.1 57.0 98 56.4 0.0 1.0 Plea 0.00 29.590
06/04/2006 4:30 a 57.1 57.1 57.1 57.2 57.0 99 56.8 0.0 0.0 Plea 0.00 29.593
06/04/2006 4:40 a 57.2 57.2 57.2 57.2 57.1 99 56.9 0.0 0.0 Plea 0.00 29.592
06/04/2006 4:50 a 57.2 57.2 57.2 57.2 57.1 99 56.9 0.0 0.0 Plea 0.00 29.594
06/04/2006 5:00 a 57.1 57.1 57.1 57.2 57.1 98 56.5 0.0 0.0 Plea 0.00 29.595
06/04/2006 5:10 a 57.1 57.1 57.1 57.2 57.1 99 56.8 0.0 0.0 Plea 0.00 29.601
06/04/2006 5:20 a 57.1 57.1 57.1 57.2 57.1 99 56.8 0.0 0.0 Plea 0.00 29.605
06/04/2006 5:30 a 57.1 57.1 57.1 57.1 57.1 98 56.5 0.0 0.0 Plea 0.00 29.607
06/04/2006 5:40 a 57.1 57.1 57.1 57.1 57.1 97 56.3 0.0 0.0 Plea 0.00 29.607
06/04/2006 5:50 a 57.2 57.2 57.2 57.2 57.1 97 56.4 0.0 1.0 SE 0.00 29.610
06/04/2006 6:00 a 57.2 57.2 57.2 57.2 57.1 96 56.1 0.0 2.0 SE 0.00 29.614
06/04/2006 6:10 a 57.2 57.2 57.2 57.2 57.2 96 56.1 0.0 0.0 Plea 0.00 29.622
06/04/2006 6:20 a 57.3 57.3 57.3 57.3 57.2 98 56.7 0.0 0.0 Plea 0.00 29.630
06/04/2006 6:30 a 57.3 57.3 57.3 57.4 57.3 97 56.5 0.0 2.0 SE 0.00 29.627
06/04/2006 6:40 a 57.3 57.3 57.3 57.4 57.3 95 55.9 0.0 1.0 SE 0.00 29.632
06/04/2006 6:50 a 57.4 57.4 57.4 57.5 57.3 94 55.7 0.0 2.0 SE 0.00 29.630
06/04/2006 7:00 a 57.6 57.6 57.6 57.7 57.4 93 55.6 0.0 2.0 SE 0.00 29.635
06/04/2006 7:10 a 57.8 57.8 57.8 57.9 57.7 92 55.5 0.0 2.0 SE 0.00 29.640
06/04/2006 7:20 a 57.9 57.9 57.9 58.0 57.9 92 55.6 0.0 3.0 ESE 0.00 29.639
06/04/2006 7:30 a 58.1 58.1 58.1 58.2 58.0 91 55.5 0.0 1.0 ESE 0.00 29.638
06/04/2006 7:40 a 58.2 58.2 58.2 58.3 58.2 89 55.0 0.0 3.0 ESE 0.00 29.642
06/04/2006 7:50 a 58.5 58.5 58.5 58.7 58.3 88 55.0 0.0 3.0 ESE 0.00 29.643
06/04/2006 8:00 a 58.8 58.8 58.8 58.9 58.7 89 55.6 0.0 3.0 ESE 0.00 29.639
06/04/2006 8:10 a 59.0 59.0 59.0 59.2 58.9 88 55.4 0.0 3.0 ESE 0.00 29.645
06/04/2006 8:30 a 59.6 59.6 59.6 59.9 59.4 86 55.4 1.0 3.0 ESE 0.00 29.648
06/04/2006 8:40 a 60.0 60.0 60.0 60.1 59.9 85 55.5 0.0 3.0 ESE 0.00 29.645
06/04/2006 8:50 a 60.2 60.2 60.2 60.4 60.1 85 55.7 0.0 3.0 ESE 0.00 29.647
06/04/2006 9:00 a 60.4 60.4 60.4 60.4 60.4 83 55.2 0.0 3.0 ESE 0.00 29.648
06/04/2006 9:10 a 60.5 60.5 60.5 60.6 60.4 84 55.6 0.0 2.0 ESE 0.00 29.648
06/04/2006 9:20 a 60.8 60.8 60.8 60.9 60.6 82 55.3 0.0 2.0 ESE 0.00 29.650
06/04/2006 9:30 a 61.3 61.3 61.3 61.4 60.9 81 55.4 0.0 2.0 ESE 0.00 29.650
06/04/2006 9:40 a 61.6 61.6 61.6 61.8 61.4 79 55.0 0.0 3.0 ESE 0.00 29.653
06/04/2006 9:50 a 61.8 61.8 61.8 61.8 61.7 80 55.6 0.0 2.0 ESE 0.00 29.649
06/04/2006 10:10 a 61.4 61.4 61.4 61.5 61.4 81 55.5 0.0 1.0 ESE 0.00 29.651
06/04/2006 10:20 a 61.5 61.5 61.5 61.7 61.4 81 55.6 0.0 2.0 ESE 0.00 29.648
06/04/2006 10:30 a 61.8 61.8 61.8 62.0 61.7 84 56.9 0.0 1.0 ESE 0.00 29.646
06/04/2006 10:40 a 62.2 62.2 62.2 62.5 62.0 77 54.9 0.0 2.0 ESE 0.00 29.645
06/04/2006 10:50 a 62.6 62.6 62.6 62.7 62.5 77 55.3 0.0 2.0 ESE 0.00 29.647
06/04/2006 11:00 a 62.9 62.9 62.9 63.1 62.7 77 55.6 0.0 1.0 ESE 0.00 29.645
06/04/2006 11:10 a 63.3 63.3 63.3 63.4 63.1 75 55.2 0.0 1.0 ESE 0.00 29.644
06/04/2006 11:30 a 63.9 63.9 63.9 64.4 63.6 75 55.8 0.0 4.0 ESE 0.00 29.640
06/04/2006 11:40 a 64.8 64.8 64.8 65.1 64.5 71 55.2 1.0 3.0 ESE 0.00 29.640
06/04/2006 11:50 a 65.4 65.4 65.4 65.5 65.0 71 55.7 0.0 2.0 ESE 0.00 29.640
06/04/2006 12:00 p 65.6 65.6 65.6 65.7 65.5 72 56.3 0.0 0.0 Plea 0.00 29.639
06/04/2006 12:10 p 66.0 66.0 66.0 66.6 65.7 68 55.1 0.0 2.0 ESE 0.00 29.637
06/04/2006 12:20 p 67.1 67.1 67.1 67.4 66.6 68 56.2 0.0 0.0 Plea 0.00 29.633
06/04/2006 12:30 p 67.2 67.2 67.2 67.4 66.9 67 55.9 0.0 2.0 ESE 0.00 29.633
06/04/2006 12:40 p 66.9 66.9 66.9 66.9 66.7 70 56.8 0.0 1.0 ESE 0.00 29.630
06/04/2006 12:50 p 66.6 66.6 66.6 66.8 66.4 70 56.5 0.0 2.0 ESE 0.00 29.625
06/04/2006 1:00 p 66.2 66.2 66.2 66.4 66.2 70 56.1 0.0 1.0 Plea 0.00 29.622
06/04/2006 1:10 p 66.3 66.3 66.3 66.3 66.2 70 56.2 0.0 1.0 ESE 0.00 29.622
06/04/2006 1:20 p 66.3 66.3 66.3 66.4 66.2 72 57.0 0.0 0.0 Plea 0.00 29.623
06/04/2006 1:30 p 66.2 66.2 66.2 66.3 66.1 73 57.3 0.0 0.0 Plea 0.00 29.626
06/04/2006 1:40 p 66.0 66.0 66.0 66.1 65.9 72 56.7 0.0 2.0 E 0.00 29.623
06/04/2006 1:50 p 65.8 65.8 65.8 65.9 65.8 75 57.7 0.0 0.0 Plea 0.00 29.623
06/04/2006 2:00 p 65.9 65.9 65.9 66.2 65.8 71 56.2 0.0 0.0 Plea 0.00 29.623
06/04/2006 2:10 p 66.5 66.5 66.5 66.7 66.2 72 57.2 0.0 0.0 Plea 0.00 29.622
06/04/2006 2:20 p 66.6 66.6 66.6 66.7 66.3 74 58.1 0.0 1.0 E 0.00 29.625
06/04/2006 2:30 p 66.1 66.1 66.1 66.4 65.8 75 57.9 0.0 0.0 Plea 0.00 29.623
06/04/2006 2:40 p 65.6 65.6 65.6 65.8 65.5 78 58.6 0.0 0.0 Plea 0.00 29.624
06/04/2006 2:50 p 65.5 65.5 65.5 65.6 65.5 78 58.5 0.0 0.0 Plea 0.00 29.624
06/04/2006 3:00 p 65.5 65.5 65.5 65.5 65.4 77 58.1 0.0 0.0 Plea 0.00 29.626
06/04/2006 3:10 p 65.4 65.4 65.4 65.5 65.4 77 58.0 0.0 0.0 Plea 0.00 29.624
06/04/2006 3:20 p 65.3 65.3 65.3 65.4 65.2 77 57.9 0.0 0.0 Plea 0.00 29.626
06/04/2006 3:30 p 65.2 65.2 65.2 65.3 65.2 75 57.1 0.0 0.0 Plea 0.00 29.627
06/04/2006 3:40 p 65.3 65.3 65.3 65.4 65.2 77 57.9 0.0 0.0 Plea 0.00 29.620
06/04/2006 3:50 p 65.6 65.6 65.6 65.7 65.4 73 56.7 0.0 1.0 E 0.00 29.620
06/04/2006 4:00 p 65.9 65.9 65.9 66.0 65.7 72 56.6 0.0 0.0 Plea 0.00 29.621
06/04/2006 4:10 p 66.2 66.2 66.2 66.4 66.0 70 56.1 0.0 0.0 Plea 0.00 29.619
06/04/2006 4:20 p 66.5 66.5 66.5 66.6 66.3 70 56.4 0.0 0.0 Plea 0.00 29.620
06/04/2006 4:30 p 66.6 66.6 66.6 66.6 66.6 70 56.5 0.0 0.0 Plea 0.00 29.619
06/04/2006 4:40 p 66.6 66.6 66.6 66.6 66.6 72 57.3 0.0 0.0 Plea 0.00 29.623
06/04/2006 4:50 p 66.5 66.5 66.5 66.6 66.5 71 56.8 0.0 0.0 Plea 0.00 29.618
06/04/2006 5:00 p 66.5 66.5 66.5 66.5 66.4 72 57.2 0.0 0.0 Plea 0.00 29.616
06/04/2006 5:10 p 66.6 66.6 66.6 66.7 66.5 72 57.3 0.0 0.0 Plea 0.00 29.614
06/04/2006 5:20 p 66.7 66.7 66.7 66.8 66.6 72 57.4 0.0 0.0 Plea 0.00 29.615
06/04/2006 5:30 p 66.7 66.7 66.7 66.7 66.6 72 57.4 0.0 0.0 Plea 0.00 29.616
06/04/2006 5:40 p 66.6 66.6 66.6 66.7 66.6 73 57.7 0.0 0.0 Plea 0.00 29.607
06/04/2006 5:50 p 66.7 66.7 66.7 66.8 66.6 72 57.4 0.0 0.0 Plea 0.00 29.610
06/04/2006 6:00 p 66.6 66.6 66.6 66.8 66.5 73 57.7 0.0 0.0 Plea 0.00 29.609
06/04/2006 6:10 p 66.4 66.4 66.4 66.5 66.2 75 58.2 0.0 0.0 Plea 0.00 29.610
06/04/2006 6:20 p 66.2 66.2 66.2 66.2 66.0 76 58.4 0.0 0.0 Plea 0.00 29.609
06/04/2006 6:30 p 65.8 65.8 65.8 66.0 65.7 76 58.0 0.0 0.0 Plea 0.00 29.609
06/04/2006 6:40 p 65.6 65.6 65.6 65.7 65.5 78 58.6 0.0 0.0 Plea 0.00 29.619
06/04/2006 6:50 p 65.3 65.3 65.3 65.5 65.1 78 58.3 0.0 0.0 Plea 0.00 29.615
06/04/2006 7:00 p 65.1 65.1 65.1 65.2 64.9 81 59.1 0.0 0.0 Plea 0.00 29.623
06/04/2006 7:10 p 64.8 64.8 64.8 65.0 64.6 81 58.8 0.0 0.0 Plea 0.01 29.627
06/04/2006 7:20 p 64.2 64.2 64.2 64.6 63.6 87 60.2 0.0 2.0 E 0.02 29.632
06/04/2006 7:30 p 63.1 63.1 63.1 63.7 62.7 89 59.8 0.0 2.0 E 0.01 29.639
06/04/2006 7:40 p 62.4 62.4 62.4 62.7 62.2 92 60.0 0.0 1.0 E 0.02 29.642
06/04/2006 7:50 p 61.9 61.9 61.9 62.2 61.7 94 60.2 0.0 2.0 E 0.01 29.646
06/04/2006 8:00 p 61.6 61.6 61.6 61.7 61.5 96 60.4 0.0 0.0 Plea 0.01 29.645
06/04/2006 8:10 p 61.5 61.5 61.5 61.6 61.5 96 60.3 0.0 0.0 Plea 0.00 29.648
06/04/2006 8:20 p 61.4 61.4 61.4 61.5 61.4 97 60.5 0.0 0.0 Plea 0.01 29.647
06/04/2006 8:30 p 61.3 61.3 61.3 61.4 61.2 97 60.4 0.0 0.0 Plea 0.00 29.642
06/04/2006 8:40 p 61.2 61.2 61.2 61.3 61.1 97 60.3 0.0 0.0 Plea 0.00 29.639
06/04/2006 8:50 p 61.2 61.2 61.2 61.2 61.1 98 60.6 0.0 0.0 Plea 0.00 29.641
06/04/2006 9:00 p 61.2 61.2 61.2 61.2 61.1 99 60.9 0.0 0.0 Plea 0.00 29.641
06/04/2006 9:10 p 61.1 61.1 61.1 61.2 61.1 99 60.8 0.0 0.0 Plea 0.00 29.640
06/04/2006 9:20 p 61.0 61.0 61.0 61.1 60.9 99 60.7 0.0 0.0 Plea 0.00 29.641
06/04/2006 9:30 p 60.8 60.8 60.8 60.9 60.7 98 60.2 0.0 0.0 Plea 0.00 29.646
06/04/2006 9:40 p 60.6 60.6 60.6 60.7 60.5 99 60.3 0.0 0.0 Plea 0.00 29.652
06/04/2006 9:50 p 60.5 60.5 60.5 60.6 60.4 99 60.2 0.0 0.0 Plea 0.00 29.661
06/04/2006 10:00 p 60.4 60.4 60.4 60.4 60.3 99 60.1 0.0 0.0 Plea 0.00 29.666
06/04/2006 10:10 p 60.4 60.4 60.4 60.4 60.3 100 60.4 0.0 0.0 Plea 0.00 29.672
06/04/2006 10:20 p 60.4 60.4 60.4 60.4 60.4 100 60.4 0.0 0.0 Plea 0.00 29.672
06/04/2006 10:30 p 60.4 60.4 60.4 60.4 60.3 100 60.4 0.0 0.0 Plea 0.00 29.672
06/04/2006 10:40 p 60.4 60.4 60.4 60.4 60.4 100 60.4 0.0 0.0 Plea 0.00 29.669
06/04/2006 10:50 p 60.4 60.4 60.4 60.4 60.3 100 60.4 0.0 0.0 Plea 0.00 29.672
06/04/2006 11:00 p 60.3 60.3 60.3 60.4 60.3 100 60.3 0.0 0.0 Plea 0.00 29.673
06/04/2006 11:10 p 60.3 60.3 60.3 60.4 60.2 100 60.3 0.0 0.0 Plea 0.00 29.670
06/04/2006 11:20 p 60.1 60.1 60.1 60.2 60.0 100 60.1 0.0 0.0 Plea 0.00 29.672
06/04/2006 11:30 p 60.0 60.0 60.0 60.0 60.0 100 60.0 0.0 0.0 Plea 0.00 29.673
06/04/2006 11:40 p 60.0 60.0 60.0 60.0 60.0 100 60.0 0.0 0.0 Plea 0.00 29.672
06/04/2006 11:50 p 60.1 60.1 60.1 60.2 60.0 100 60.1 0.0 0.0 Plea 0.00 29.671
06/05/2006 12:00 a 60.2 60.2 60.2 60.3 60.2 100 60.2 0.0 0.0 Plea 0.00 29.675
06/05/2006 12:10 a 60.3 60.3 60.3 60.3 60.2 100 60.3 0.0 0.0 Plea 0.00 29.675
06/05/2006 12:20 a 60.2 60.2 60.2 60.3 60.2 100 60.2 0.0 0.0 Plea 0.00 29.674
06/05/2006 12:30 a 60.0 60.0 60.0 60.2 59.9 100 60.0 0.0 0.0 Plea 0.00 29.675
06/05/2006 12:40 a 59.8 59.8 59.8 59.9 59.6 100 59.8 0.0 0.0 Plea 0.00 29.676
06/05/2006 12:50 a 59.5 59.5 59.5 59.6 59.4 100 59.5 0.0 0.0 Plea 0.00 29.671
06/05/2006 1:00 a 59.4 59.4 59.4 59.4 59.4 100 59.4 0.0 0.0 Plea 0.00 29.676
06/05/2006 1:10 a 59.4 59.4 59.4 59.5 59.4 100 59.4 0.0 0.0 Plea 0.00 29.677
06/05/2006 1:20 a 59.5 59.5 59.5 59.6 59.4 100 59.5 0.0 0.0 Plea 0.00 29.679
06/05/2006 1:30 a 59.6 59.6 59.6 59.7 59.6 100 59.6 0.0 0.0 Plea 0.00 29.685
06/05/2006 1:40 a 59.6 59.6 59.6 59.7 59.6 100 59.6 0.0 0.0 Plea 0.00 29.685
06/05/2006 1:50 a 59.6 59.6 59.6 59.6 59.6 100 59.6 0.0 0.0 Plea 0.00 29.681
06/05/2006 2:00 a 59.6 59.6 59.6 59.6 59.5 100 59.6 0.0 0.0 Plea 0.00 29.678
06/05/2006 2:10 a 59.6 59.6 59.6 59.6 59.5 100 59.6 0.0 0.0 Plea 0.00 29.672
06/05/2006 2:20 a 59.5 59.5 59.5 59.5 59.4 100 59.5 0.0 0.0 Plea 0.00 29.672
06/05/2006 2:30 a 59.3 59.3 59.3 59.4 59.1 100 59.3 0.0 0.0 Plea 0.00 29.674
06/05/2006 2:40 a 59.0 59.0 59.0 59.2 58.9 100 59.0 0.0 0.0 Plea 0.00 29.678
06/05/2006 2:50 a 58.8 58.8 58.8 58.9 58.6 100 58.8 0.0 0.0 Plea 0.00 29.680
06/05/2006 3:00 a 58.5 58.5 58.5 58.6 58.5 100 58.5 0.0 0.0 Plea 0.00 29.679
06/05/2006 3:10 a 58.5 58.5 58.5 58.6 58.5 100 58.5 0.0 0.0 Plea 0.00 29.677
06/05/2006 3:20 a 58.6 58.6 58.6 58.6 58.6 100 58.6 0.0 0.0 Plea 0.00 29.675
06/05/2006 3:30 a 58.6 58.6 58.6 58.6 58.6 100 58.6 0.0 0.0 Plea 0.00 29.676
06/05/2006 3:40 a 58.6 58.6 58.6 58.7 58.5 100 58.6 0.0 0.0 Plea 0.00 29.680
06/05/2006 3:50 a 58.5 58.5 58.5 58.6 58.5 100 58.5 0.0 0.0 Plea 0.00 29.674
06/05/2006 4:00 a 58.5 58.5 58.5 58.6 58.4 100 58.5 0.0 0.0 Plea 0.00 29.671
06/05/2006 4:10 a 58.3 58.3 58.3 58.4 58.2 100 58.3 0.0 0.0 Plea 0.00 29.670
06/05/2006 4:20 a 58.1 58.1 58.1 58.2 58.0 100 58.1 0.0 0.0 Plea 0.00 29.674
06/05/2006 4:30 a 58.0 58.0 58.0 58.1 57.9 100 58.0 0.0 0.0 Plea 0.00 29.681
06/05/2006 4:40 a 58.0 58.0 58.0 58.1 57.9 100 58.0 0.0 0.0 Plea 0.00 29.681
06/05/2006 4:50 a 58.1 58.1 58.1 58.1 58.0 100 58.1 0.0 0.0 Plea 0.00 29.685
06/05/2006 5:00 a 58.0 58.0 58.0 58.1 57.9 100 58.0 0.0 1.0 E 0.00 29.689
06/05/2006 5:10 a 57.8 57.8 57.8 57.9 57.6 100 57.8 0.0 1.0 Plea 0.00 29.693
06/05/2006 5:20 a 57.5 57.5 57.5 57.7 57.4 100 57.5 0.0 0.0 Plea 0.00 29.695
06/05/2006 5:30 a 57.3 57.3 57.3 57.5 57.1 99 57.0 0.0 0.0 Plea 0.00 29.694
06/05/2006 5:40 a 56.9 56.9 56.9 57.1 56.7 99 56.6 0.0 0.0 Plea 0.00 29.697
06/05/2006 5:50 a 56.5 56.5 56.5 56.7 56.4 99 56.2 0.0 0.0 Plea 0.00 29.700
06/05/2006 6:00 a 56.4 56.4 56.4 56.5 56.3 99 56.1 0.0 0.0 Plea 0.00 29.708
06/05/2006 6:10 a 56.3 56.3 56.3 56.3 56.2 100 56.3 0.0 0.0 Plea 0.00 29.706
06/05/2006 6:20 a 56.3 56.3 56.3 56.5 56.2 100 56.3 0.0 0.0 Plea 0.00 29.712
06/05/2006 6:30 a 56.6 56.6 56.6 56.7 56.5 100 56.6 0.0 0.0 Plea 0.00 29.712
06/05/2006 6:40 a 56.8 56.8 56.8 56.9 56.7 100 56.8 0.0 0.0 Plea 0.00 29.719
06/05/2006 6:50 a 57.0 57.0 57.0 57.1 56.9 100 57.0 0.0 1.0 E 0.00 29.720
06/05/2006 7:00 a 57.3 57.3 57.3 57.5 57.1 97 56.5 0.0 3.0 E 0.00 29.723
06/05/2006 7:10 a 57.6 57.6 57.6 57.8 57.5 96 56.5 0.0 1.0 Plea 0.00 29.724
06/05/2006 7:20 a 58.0 58.0 58.0 58.1 57.8 95 56.6 0.0 1.0 E 0.00 29.726
06/05/2006 7:30 a 58.3 58.3 58.3 58.5 58.1 94 56.6 0.0 1.0 E 0.00 29.725
06/05/2006 7:40 a 58.6 58.6 58.6 58.7 58.4 94 56.9 0.0 1.0 E 0.00 29.726
06/05/2006 7:50 a 58.7 58.7 58.7 58.8 58.7 92 56.4 0.0 2.0 E 0.00 29.730
06/05/2006 8:00 a 58.9 58.9 58.9 59.0 58.8 92 56.6 0.0 1.0 E 0.00 29.735
06/05/2006 8:10 a 59.2 59.2 59.2 59.4 59.0 91 56.6 0.0 2.0 E 0.00 29.738
06/05/2006 8:20 a 59.6 59.6 59.6 59.7 59.4 90 56.7 0.0 1.0 E 0.00 29.739
06/05/2006 8:30 a 59.8 59.8 59.8 60.0 59.7 89 56.6 0.0 1.0 E 0.00 29.737
06/05/2006 8:40 a 60.2 60.2 60.2 60.6 60.0 88 56.6 0.0 4.0 E 0.00 29.735
06/05/2006 8:50 a 60.8 60.8 60.8 61.1 60.6 87 56.9 1.0 3.0 E 0.00 29.736
06/05/2006 9:00 a 61.3 61.3 61.3 61.5 61.0 86 57.1 0.0 1.0 E 0.00 29.738
06/05/2006 9:10 a 61.8 61.8 61.8 62.1 61.5 84 56.9 0.0 1.0 E 0.00 29.735
06/05/2006 9:20 a 62.6 62.6 62.6 62.9 62.2 82 57.0 0.0 1.0 E 0.00 29.738
06/05/2006 9:30 a 63.0 63.0 63.0 63.2 62.9 83 57.8 0.0 1.0 E 0.00 29.736
06/05/2006 9:40 a 63.3 63.3 63.3 63.4 63.2 81 57.4 0.0 0.0 Plea 0.00 29.737
06/05/2006 9:50 a 63.6 63.6 63.6 63.9 63.4 79 57.0 0.0 1.0 E 0.00 29.742
06/05/2006 10:00 a 64.1 64.1 64.1 64.4 63.9 77 56.7 0.0 1.0 Plea 0.00 29.740
06/05/2006 10:10 a 64.5 64.5 64.5 64.8 64.4 77 57.1 0.0 1.0 NE 0.00 29.738
06/05/2006 10:20 a 65.1 65.1 65.1 65.5 64.8 78 58.1 0.0 2.0 NNE 0.00 29.737
06/05/2006 10:30 a 65.9 65.9 65.9 66.1 65.5 77 58.5 0.0 1.0 NNE 0.00 29.738
06/05/2006 10:40 a 66.2 66.2 66.2 66.3 66.1 77 58.8 0.0 1.0 NNE 0.00 29.744
06/05/2006 10:50 a 66.5 66.5 66.5 66.6 66.3 75 58.3 0.0 1.0 NNE 0.00 29.746
06/05/2006 11:00 a 66.7 66.7 66.7 66.8 66.6 73 57.8 0.0 0.0 Plea 0.00 29.749
06/05/2006 11:10 a 66.9 66.9 66.9 66.9 66.8 74 58.3 0.0 1.0 Plea 0.00 29.748
06/05/2006 11:20 a 66.9 66.9 66.9 66.9 66.9 71 57.2 0.0 0.0 Plea 0.00 29.747
06/05/2006 11:30 a 66.9 66.9 66.9 66.9 66.9 73 58.0 0.0 1.0 Plea 0.00 29.745
06/05/2006 11:40 a 66.9 66.9 66.9 66.9 66.8 72 57.6 0.0 1.0 NNE 0.00 29.746
06/05/2006 11:50 a 67.0 67.0 67.0 67.1 66.9 73 58.1 0.0 1.0 NNE 0.00 29.746
06/05/2006 12:00 p 67.2 67.2 67.2 67.3 67.1 73 58.2 0.0 0.0 Plea 0.00 29.746
06/05/2006 12:10 p 67.3 67.3 67.3 67.4 67.3 72 58.0 0.0 1.0 NNE 0.00 29.741
06/05/2006 12:20 p 67.4 67.4 67.4 67.5 67.3 69 56.9 0.0 0.0 Plea 0.00 29.741
06/05/2006 12:30 p 67.5 67.5 67.5 67.5 67.4 70 57.4 0.0 0.0 Plea 0.00 29.744
06/05/2006 12:40 p 67.3 67.3 67.3 67.4 67.2 73 58.3 0.0 0.0 Plea 0.00 29.744
06/05/2006 12:50 p 67.1 67.1 67.1 67.3 67.0 74 58.5 0.0 0.0 Plea 0.00 29.748
06/05/2006 1:00 p 66.9 66.9 66.9 67.0 66.7 75 58.7 0.0 0.0 Plea 0.00 29.752
06/05/2006 1:10 p 66.6 66.6 66.6 66.7 66.6 73 57.7 0.0 0.0 Plea 0.00 29.749
06/05/2006 1:20 p 66.6 66.6 66.6 66.7 66.6 75 58.4 0.0 0.0 Plea 0.00 29.749
06/05/2006 1:30 p 66.7 66.7 66.7 66.8 66.6 74 58.1 0.0 0.0 Plea 0.00 29.748
06/05/2006 1:40 p 66.8 66.8 66.8 67.0 66.7 75 58.6 0.0 0.0 Plea 0.00 29.737
06/05/2006 1:50 p 67.4 67.4 67.4 67.7 67.0 73 58.4 0.0 0.0 Plea 0.00 29.737
06/05/2006 2:00 p 67.8 67.8 67.8 67.9 67.7 72 58.4 0.0 1.0 NNE 0.00 29.737
06/05/2006 2:10 p 68.4 68.0 68.0 68.2 67.9 72 58.6 0.0 0.0 Plea 0.00 29.738
06/05/2006 2:20 p 68.2 68.3 68.3 68.5 68.2 71 58.5 0.0 1.0 NNE 0.00 29.738
06/05/2006 2:30 p 69.0 68.7 68.7 68.9 68.5 67 57.3 0.0 1.0 NNE 0.00 29.740
06/05/2006 2:40 p 69.0 69.1 69.1 69.4 68.9 67 57.7 0.0 2.0 NNE 0.00 29.737
06/05/2006 2:50 p 70.0 69.7 69.7 69.8 69.4 65 57.4 0.0 2.0 NNE 0.00 29.739
06/05/2006 3:00 p 69.0 69.4 69.4 69.7 69.2 67 58.0 0.0 1.0 NNE 0.00 29.736
06/05/2006 3:10 p 70.0 69.7 69.7 70.1 69.3 66 57.8 0.0 3.0 NE 0.00 29.737
06/05/2006 3:20 p 70.0 70.3 70.3 70.4 70.1 68 59.2 0.0 0.0 Plea 0.00 29.732
06/05/2006 3:30 p 70.0 70.0 70.0 70.3 69.7 70 59.8 0.0 0.0 Plea 0.00 29.731
06/05/2006 3:40 p 70.0 69.5 69.5 69.7 69.3 69 58.9 0.0 0.0 Plea 0.00 29.732
06/05/2006 3:50 p 69.2 69.1 69.1 69.3 68.8 71 59.3 0.0 0.0 Plea 0.00 29.727
06/05/2006 4:00 p 69.0 68.6 68.6 68.8 68.3 70 58.4 0.0 0.0 Plea 0.00 29.732
06/05/2006 4:10 p 68.4 68.1 68.1 68.3 67.8 72 58.7 0.0 0.0 Plea 0.00 29.730
06/05/2006 4:20 p 67.7 67.7 67.7 67.9 67.5 74 59.1 0.0 0.0 Plea 0.01 29.734
06/05/2006 4:30 p 67.2 67.2 67.2 67.5 66.8 79 60.5 0.0 0.0 Plea 0.00 29.735
06/05/2006 4:40 p 66.3 66.3 66.3 66.8 65.8 82 60.6 0.0 0.0 Plea 0.00 29.734
06/05/2006 4:50 p 65.4 65.4 65.4 65.8 65.2 85 60.8 0.0 0.0 Plea 0.00 29.732
06/05/2006 5:00 p 65.2 65.2 65.2 65.2 65.1 86 60.9 0.0 0.0 Plea 0.00 29.732
06/05/2006 5:10 p 65.4 65.4 65.4 65.6 65.2 82 59.8 0.0 1.0 NE 0.00 29.728
06/05/2006 5:20 p 65.8 65.8 65.8 66.0 65.6 80 59.5 0.0 0.0 Plea 0.00 29.732
06/05/2006 5:40 p 66.0 66.0 66.0 66.1 65.9 82 60.3 0.0 0.0 Plea 0.00 29.735
06/05/2006 5:50 p 65.9 65.9 65.9 65.9 65.8 83 60.6 0.0 0.0 Plea 0.00 29.737
06/05/2006 6:00 p 65.8 65.8 65.8 65.9 65.7 84 60.8 0.0 0.0 Plea 0.00 29.734
06/05/2006 6:10 p 65.8 65.8 65.8 65.8 65.7 85 61.2 0.0 0.0 Plea 0.00 29.736
06/05/2006 6:20 p 65.7 65.7 65.7 65.8 65.7 86 61.4 0.0 0.0 Plea 0.00 29.733
06/05/2006 6:30 p 65.8 65.8 65.8 65.8 65.7 87 61.8 0.0 0.0 Plea 0.00 29.733
06/05/2006 6:40 p 65.9 65.9 65.9 65.9 65.8 86 61.6 0.0 0.0 Plea 0.00 29.733
06/05/2006 6:50 p 65.9 65.9 65.9 65.9 65.8 84 60.9 0.0 0.0 Plea 0.00 29.738
06/05/2006 7:00 p 65.8 65.8 65.8 65.9 65.8 82 60.2 0.0 0.0 Plea 0.00 29.743
06/05/2006 7:10 p 65.8 65.8 65.8 65.8 65.7 83 60.5 0.0 0.0 Plea 0.00 29.747
06/05/2006 7:20 p 65.7 65.7 65.7 65.7 65.7 85 61.1 0.0 0.0 Plea 0.00 29.749
06/05/2006 7:30 p 65.6 65.6 65.6 65.7 65.5 84 60.6 0.0 0.0 Plea 0.00 29.749
06/05/2006 7:40 p 65.4 65.4 65.4 65.5 65.3 84 60.4 0.0 0.0 Plea 0.00 29.752
06/05/2006 7:50 p 65.3 65.3 65.3 65.4 65.2 84 60.3 0.0 0.0 Plea 0.00 29.754
06/05/2006 8:00 p 65.2 65.2 65.2 65.2 65.1 84 60.2 0.0 0.0 Plea 0.00 29.758
06/05/2006 8:10 p 65.0 65.0 65.0 65.1 64.8 84 60.0 0.0 0.0 Plea 0.00 29.759
06/05/2006 8:20 p 64.7 64.7 64.7 64.8 64.5 84 59.8 0.0 0.0 Plea 0.00 29.759
06/05/2006 8:30 p 64.5 64.5 64.5 64.6 64.4 85 59.9 0.0 0.0 Plea 0.00 29.764
06/05/2006 8:40 p 64.3 64.3 64.3 64.4 64.1 85 59.7 0.0 0.0 Plea 0.00 29.760
06/05/2006 8:50 p 64.1 64.1 64.1 64.2 63.9 86 59.8 0.0 0.0 Plea 0.00 29.762
06/05/2006 9:00 p 63.7 63.7 63.7 63.9 63.5 87 59.8 0.0 0.0 Plea 0.00 29.766
06/05/2006 9:10 p 63.4 63.4 63.4 63.5 63.3 87 59.5 0.0 0.0 Plea 0.00 29.767
06/05/2006 9:20 p 63.3 63.3 63.3 63.4 63.2 87 59.4 0.0 0.0 Plea 0.00 29.770
06/05/2006 9:30 p 63.1 63.1 63.1 63.2 63.0 90 60.1 0.0 0.0 Plea 0.00 29.779
06/05/2006 9:40 p 62.9 62.9 62.9 63.1 62.8 90 59.9 0.0 0.0 Plea 0.00 29.780
06/05/2006 9:50 p 62.7 62.7 62.7 62.8 62.6 91 60.0 0.0 0.0 Plea 0.00 29.782
06/05/2006 10:00 p 62.6 62.6 62.6 62.6 62.5 91 59.9 0.0 0.0 Plea 0.00 29.784
06/05/2006 10:10 p 62.4 62.4 62.4 62.5 62.3 91 59.7 0.0 0.0 Plea 0.00 29.785
06/05/2006 10:20 p 62.1 62.1 62.1 62.3 61.9 91 59.4 0.0 0.0 Plea 0.00 29.783
06/05/2006 10:30 p 61.8 61.8 61.8 61.9 61.7 92 59.5 0.0 0.0 Plea 0.00 29.783
06/05/2006 10:40 p 61.6 61.6 61.6 61.7 61.4 93 59.6 0.0 0.0 Plea 0.00 29.784
06/05/2006 10:50 p 61.2 61.2 61.2 61.4 61.0 94 59.5 0.0 0.0 Plea 0.00 29.784
06/05/2006 11:00 p 60.9 60.9 60.9 61.0 60.8 94 59.2 0.0 0.0 Plea 0.00 29.783
06/05/2006 11:10 p 60.7 60.7 60.7 60.8 60.6 95 59.3 0.0 0.0 Plea 0.00 29.785
06/05/2006 11:20 p 60.4 60.4 60.4 60.6 60.2 95 59.0 0.0 0.0 Plea 0.00 29.787
06/05/2006 11:30 p 60.1 60.1 60.1 60.3 59.9 96 59.0 0.0 0.0 Plea 0.00 29.784
06/05/2006 11:40 p 59.8 59.8 59.8 59.9 59.7 96 58.7 0.0 0.0 Plea 0.00 29.781
06/05/2006 11:50 p 59.6 59.6 59.6 59.7 59.5 96 58.5 0.0 0.0 Plea 0.00 29.782
06/06/2006 12:00 a 59.4 59.4 59.4 59.5 59.3 97 58.5 0.0 0.0 Plea 0.00 29.786
06/06/2006 12:10 a 59.2 59.2 59.2 59.3 59.1 97 58.3 0.0 0.0 Plea 0.00 29.785
06/06/2006 12:20 a 59.0 59.0 59.0 59.1 58.8 98 58.4 0.0 0.0 Plea 0.00 29.785
06/06/2006 12:30 a 58.8 58.8 58.8 58.9 58.7 98 58.2 0.0 0.0 Plea 0.00 29.784
06/06/2006 12:40 a 58.6 58.6 58.6 58.7 58.4 98 58.0 0.0 0.0 Plea 0.00 29.787
06/06/2006 12:50 a 58.3 58.3 58.3 58.4 58.1 97 57.5 0.0 0.0 Plea 0.00 29.785
06/06/2006 1:00 a 58.0 58.0 58.0 58.1 57.9 98 57.4 0.0 0.0 Plea 0.00 29.786
06/06/2006 1:10 a 57.9 57.9 57.9 58.0 57.8 98 57.3 0.0 0.0 Plea 0.00 29.784
06/06/2006 1:20 a 57.7 57.7 57.7 57.8 57.6 98 57.1 0.0 0.0 Plea 0.00 29.785
06/06/2006 1:30 a 57.6 57.6 57.6 57.6 57.5 99 57.3 0.0 0.0 Plea 0.00 29.786
06/06/2006 1:40 a 57.4 57.4 57.4 57.5 57.3 99 57.1 0.0 0.0 Plea 0.00 29.789
06/06/2006 1:50 a 57.3 57.3 57.3 57.4 57.1 99 57.0 0.0 0.0 Plea 0.00 29.789
06/06/2006 2:00 a 57.1 57.1 57.1 57.2 57.0 99 56.8 0.0 0.0 Plea 0.00 29.792
06/06/2006 2:10 a 57.0 57.0 57.0 57.0 56.9 100 57.0 0.0 0.0 Plea 0.00 29.791
06/06/2006 2:20 a 56.9 56.9 56.9 57.0 56.9 100 56.9 0.0 0.0 Plea 0.00 29.787
06/06/2006 2:30 a 56.9 56.9 56.9 56.9 56.7 99 56.6 0.0 0.0 Plea 0.00 29.788
06/06/2006 2:40 a 56.7 56.7 56.7 56.8 56.7 100 56.7 0.0 0.0 Plea 0.00 29.789
06/06/2006 2:50 a 56.7 56.7 56.7 56.7 56.7 100 56.7 0.0 0.0 Plea 0.00 29.790
06/06/2006 3:00 a 56.7 56.7 56.7 56.7 56.6 100 56.7 0.0 0.0 Plea 0.00 29.789
06/06/2006 3:10 a 56.5 56.5 56.5 56.6 56.4 100 56.5 0.0 0.0 Plea 0.00 29.789
06/06/2006 3:20 a 56.3 56.3 56.3 56.4 56.3 100 56.3 0.0 0.0 Plea 0.00 29.791
06/06/2006 3:30 a 56.3 56.3 56.3 56.3 56.2 100 56.3 0.0 0.0 Plea 0.00 29.787
06/06/2006 3:40 a 56.1 56.1 56.1 56.2 55.9 100 56.1 0.0 0.0 Plea 0.00 29.788
06/06/2006 3:50 a 55.9 55.9 55.9 56.0 55.8 100 55.9 0.0 0.0 Plea 0.00 29.787
06/06/2006 4:00 a 55.7 55.7 55.7 55.8 55.6 100 55.7 0.0 0.0 Plea 0.00 29.789
06/06/2006 4:10 a 55.5 55.5 55.5 55.6 55.4 100 55.5 0.0 0.0 Plea 0.00 29.789
06/06/2006 4:20 a 55.3 55.3 55.3 55.4 55.2 100 55.3 0.0 0.0 Plea 0.00 29.789
06/06/2006 4:30 a 55.1 55.1 55.1 55.2 55.1 100 55.1 0.0 0.0 Plea 0.00 29.791
06/06/2006 4:40 a 55.1 55.1 55.1 55.1 55.0 100 55.1 0.0 0.0 Plea 0.00 29.793
06/06/2006 4:50 a 55.1 55.1 55.1 55.1 55.1 100 55.1 0.0 0.0 Plea 0.00 29.796
06/06/2006 5:00 a 55.1 55.1 55.1 55.2 55.1 100 55.1 0.0 0.0 Plea 0.00 29.794
06/06/2006 5:10 a 55.0 55.0 55.0 55.1 54.9 100 55.0 0.0 0.0 Plea 0.00 29.793
06/06/2006 5:20 a 54.8 54.8 54.8 54.9 54.8 100 54.8 0.0 0.0 Plea 0.00 29.800
06/06/2006 5:30 a 54.9 54.9 54.9 54.9 54.8 100 54.9 0.0 0.0 Plea 0.00 29.803
06/06/2006 5:40 a 54.9 54.9 54.9 54.9 54.8 100 54.9 0.0 0.0 Plea 0.00 29.804
06/06/2006 5:50 a 54.7 54.7 54.7 54.8 54.6 100 54.7 0.0 0.0 Plea 0.00 29.811
06/06/2006 6:00 a 54.9 54.9 54.9 55.2 54.6 100 54.9 0.0 0.0 Plea 0.00 29.809
06/06/2006 6:10 a 55.2 55.2 55.2 55.2 55.2 100 55.2 0.0 0.0 Plea 0.00 29.808
06/06/2006 6:20 a 55.2 55.2 55.2 55.2 55.2 100 55.2 0.0 0.0 Plea 0.00 29.813
06/06/2006 6:30 a 55.2 55.2 55.2 55.2 55.2 100 55.2 0.0 0.0 Plea 0.00 29.818
06/06/2006 6:40 a 55.4 55.4 55.4 55.6 55.2 100 55.4 0.0 0.0 Plea 0.00 29.819
06/06/2006 6:50 a 55.8 55.8 55.8 56.0 55.6 100 55.8 0.0 0.0 Plea 0.00 29.828
06/06/2006 7:00 a 56.2 56.2 56.2 56.5 56.0 100 56.2 0.0 0.0 Plea 0.00 29.828
06/06/2006 7:10 a 56.7 56.7 56.7 57.0 56.5 100 56.7 0.0 0.0 Plea 0.00 29.833
06/06/2006 7:20 a 57.2 57.2 57.2 57.5 57.0 100 57.2 0.0 0.0 Plea 0.00 29.834
06/06/2006 7:30 a 57.9 57.9 57.9 58.2 57.5 100 57.9 0.0 0.0 Plea 0.00 29.839
06/06/2006 7:40 a 58.5 58.5 58.5 58.7 58.2 100 58.5 0.0 0.0 Plea 0.00 29.838
06/06/2006 7:50 a 59.1 59.1 59.1 59.4 58.7 100 59.1 0.0 0.0 Plea 0.00 29.837
06/06/2006 8:00 a 60.0 60.0 60.0 60.5 59.4 97 59.1 0.0 1.0 NE 0.00 29.837
06/06/2006 8:10 a 60.9 60.9 60.9 61.4 60.5 93 58.9 0.0 0.0 Plea 0.00 29.835
06/06/2006 8:20 a 61.7 61.7 61.7 62.1 61.3 90 58.7 0.0 2.0 NE 0.00 29.830
06/06/2006 8:30 a 62.5 62.5 62.5 63.0 62.1 86 58.3 0.0 1.0 Plea 0.00 29.834
06/06/2006 8:40 a 63.4 63.4 63.4 63.8 63.0 84 58.5 0.0 0.0 Plea 0.00 29.836
06/06/2006 8:50 a 64.2 64.2 64.2 64.6 63.8 83 58.9 0.0 0.0 Plea 0.00 29.838
06/06/2006 9:00 a 65.0 65.0 65.0 65.4 64.6 82 59.4 0.0 0.0 Plea 0.00 29.841
06/06/2006 9:10 a 65.8 65.8 65.8 66.1 65.4 79 59.1 0.0 0.0 Plea 0.00 29.841
06/06/2006 9:20 a 66.3 66.3 66.3 66.6 66.0 79 59.6 0.0 1.0 NE 0.00 29.839
06/06/2006 9:30 a 66.8 66.8 66.8 67.0 66.6 76 59.0 0.0 1.0 NE 0.00 29.838
06/06/2006 9:40 a 67.1 67.1 67.1 67.4 66.9 75 58.9 0.0 1.0 Plea 0.00 29.840
06/06/2006 9:50 a 67.6 67.6 67.6 67.7 67.4 74 59.0 0.0 1.0 NE 0.00 29.844
06/06/2006 10:00 a 67.8 67.8 67.8 67.9 67.7 73 58.8 0.0 1.0 Plea 0.00 29.847
06/06/2006 10:10 a 68.6 68.1 68.1 68.5 67.8 73 59.1 0.0 1.0 Plea 0.00 29.846
06/06/2006 10:20 a 69.2 68.7 68.7 68.8 68.5 71 58.9 0.0 2.0 NE 0.00 29.843
06/06/2006 10:30 a 69.0 69.2 69.2 69.5 68.8 70 59.0 0.0 1.0 NE 0.00 29.850
06/06/2006 10:40 a 70.2 69.5 69.5 69.6 69.4 71 59.7 0.0 1.0 NE 0.00 29.847
06/06/2006 10:50 a 69.0 69.3 69.3 69.4 69.3 70 59.1 0.0 2.0 NE 0.00 29.845
06/06/2006 11:00 a 70.0 69.5 69.5 69.6 69.3 69 58.9 0.0 3.0 NE 0.00 29.851
06/06/2006 11:10 a 70.0 69.5 69.5 69.6 69.5 70 59.3 0.0 2.0 N 0.00 29.850
06/06/2006 11:20 a 70.0 69.8 69.8 69.8 69.6 68 58.8 0.0 2.0 N 0.00 29.848
06/06/2006 11:30 a 70.0 69.8 69.8 69.8 69.7 67 58.3 0.0 2.0 NNW 0.00 29.853
06/06/2006 11:40 a 70.0 69.6 69.6 69.7 69.4 66 57.7 0.0 3.0 NNW 0.00 29.858
06/06/2006 11:50 a 69.0 69.3 69.3 69.4 69.2 68 58.3 0.0 2.0 NW 0.00 29.854
06/06/2006 12:00 p 69.0 69.3 69.3 69.4 69.2 66 57.5 0.0 3.0 NNW 0.00 29.855
06/06/2006 12:10 p 70.0 69.5 69.5 69.6 69.4 67 58.1 0.0 3.0 NE 0.00 29.855
06/06/2006 12:20 p 70.0 69.6 69.6 69.7 69.6 66 57.7 0.0 2.0 NW 0.00 29.854
06/06/2006 12:30 p 70.0 69.8 69.8 70.0 69.7 66 57.9 0.0 0.0 Plea 0.00 29.851
06/06/2006 12:40 p 70.0 70.0 70.0 70.2 69.9 65 57.7 0.0 3.0 NE 0.00 29.846
06/06/2006 12:50 p 71.0 70.6 70.6 71.1 70.2 63 57.4 0.0 2.0 NNE 0.00 29.841
06/06/2006 1:00 p 71.0 71.0 71.0 71.2 70.7 63 57.8 0.0 2.0 S 0.00 29.847
06/06/2006 1:10 p 71.0 70.6 70.6 70.8 70.5 65 58.3 0.0 1.0 W 0.00 29.843
06/06/2006 1:20 p 71.0 70.8 70.8 70.9 70.7 64 58.0 0.0 1.0 W 0.00 29.850
06/06/2006 1:30 p 71.0 70.7 70.7 70.8 70.5 65 58.4 0.0 1.0 W 0.00 29.850
06/06/2006 1:40 p 71.0 70.6 70.6 70.8 70.5 67 59.1 0.0 0.0 Plea 0.00 29.847
06/06/2006 1:50 p 71.0 71.2 71.2 71.6 70.8 67 59.7 0.0 3.0 WNW 0.00 29.848
06/06/2006 2:00 p 72.0 71.7 71.7 71.7 71.6 65 59.3 0.0 2.0 NW 0.00 29.847
06/06/2006 2:10 p 72.0 72.2 72.2 72.8 71.7 66 60.2 0.0 2.0 N 0.00 29.846
06/06/2006 2:20 p 73.0 73.0 73.0 73.1 72.8 60 58.3 0.0 2.0 N 0.01 29.841
06/06/2006 2:30 p 73.3 73.0 73.0 73.1 72.8 63 59.7 0.0 1.0 NE 0.00 29.837
06/06/2006 2:40 p 73.2 73.1 73.1 73.3 73.0 62 59.3 0.0 4.0 ENE 0.00 29.836
06/06/2006 2:50 p 73.2 73.2 73.2 73.3 73.0 62 59.4 0.0 1.0 NNE 0.00 29.830
06/06/2006 3:00 p 73.6 72.5 72.5 73.0 72.2 66 60.5 0.0 3.0 NNW 0.00 29.828
06/06/2006 3:10 p 72.0 72.1 72.1 72.2 72.0 67 60.5 0.0 1.0 NNW 0.00 29.833
06/06/2006 3:20 p 72.0 72.3 72.3 72.5 72.0 65 59.9 1.0 4.0 NW 0.00 29.831
06/06/2006 3:30 p 73.5 72.8 72.8 73.1 72.5 65 60.3 1.0 3.0 NW 0.00 29.829
06/06/2006 3:40 p 73.7 72.7 72.7 73.1 72.2 67 61.1 1.0 2.0 NW 0.00 29.826
06/06/2006 3:50 p 72.0 71.8 71.8 72.1 71.6 68 60.7 1.0 4.0 NW 0.00 29.828
06/06/2006 4:00 p 71.0 71.3 71.3 71.6 71.2 68 60.2 1.0 6.0 NW 0.00 29.824
06/06/2006 4:10 p 71.0 71.4 71.4 71.6 71.3 67 59.9 1.0 3.0 NW 0.00 29.825
06/06/2006 4:20 p 71.0 71.3 71.3 71.5 70.9 69 60.6 1.0 5.0 NW 0.00 29.830
06/06/2006 4:40 p 69.2 69.4 69.4 69.8 69.0 71 59.6 1.0 4.0 NW 0.00 29.836
06/06/2006 4:50 p 69.6 68.5 68.5 68.9 68.1 73 59.5 1.0 3.0 NW 0.00 29.840
06/06/2006 5:10 p 67.2 67.2 67.2 67.5 67.0 73 58.2 0.0 3.0 NW 0.00 29.844
06/06/2006 5:20 p